Observation data for Fort McKavett on 05/24/2020      Previous  Date  Next       Current Mesonet Observations  Soil Data  Daily Summary Page  Observations in Plain Language
KMC1 240500Z 19004KT 22/11 A2985 RMK A01 T02190113  RH  051%=      5-min Rain = 0
KMC1 240501Z 20004KT 22/11 A2985 RMK A01 T02200113  RH  051%=      5-min Rain = 0
KMC1 240502Z 20006KT 22/11 A2985 RMK A01 T02200114  RH  051%=      5-min Rain = 0
KMC1 240503Z 20005KT 22/11 A2985 RMK A01 T02200114  RH  051%=      5-min Rain = 0
KMC1 240504Z 20005KT 22/11 A2985 RMK A01 T02190113  RH  051%=      5-min Rain = 0
KMC1 240505Z 20004KT 22/11 A2985 RMK A01 T02190113  RH  051%=      5-min Rain = 0
KMC1 240506Z 20004KT 22/11 A2985 RMK A01 T02190114  RH  051%=      5-min Rain = 0
KMC1 240507Z 19003KT 22/11 A2985 RMK A01 T02190113  RH  051%=      5-min Rain = 0
KMC1 240508Z 20003KT 22/11 A2985 RMK A01 T02190113  RH  051%=      5-min Rain = 0
KMC1 240509Z 20003KT 22/11 A2985 RMK A01 T02180113  RH  051%=      5-min Rain = 0
KMC1 240510Z 20003KT 22/11 A2985 RMK A01 T02180113  RH  051%=      5-min Rain = 0
KMC1 240511Z 20003KT 22/11 A2985 RMK A01 T02170114  RH  052%=      5-min Rain = 0
KMC1 240512Z 21003KT 22/11 A2985 RMK A01 T02160113  RH  052%=      5-min Rain = 0
KMC1 240513Z 20003KT 22/11 A2985 RMK A01 T02160113  RH  052%=      5-min Rain = 0
KMC1 240514Z 21004KT 22/11 A2985 RMK A01 T02160113  RH  052%=      5-min Rain = 0
KMC1 240515Z 20004KT 22/11 A2985 RMK A01 T02160114  RH  052%=      5-min Rain = 0
KMC1 240516Z 20004KT 22/11 A2985 RMK A01 T02150114  RH  052%=      5-min Rain = 0
KMC1 240517Z 21004KT 21/11 A2985 RMK A01 T02140114  RH  053%=      5-min Rain = 0
KMC1 240518Z 21004KT 21/11 A2985 RMK A01 T02130113  RH  053%=      5-min Rain = 0
KMC1 240519Z 21004KT 21/11 A2985 RMK A01 T02130114  RH  053%=      5-min Rain = 0
KMC1 240520Z 21005KT 21/11 A2985 RMK A01 T02120113  RH  053%=      5-min Rain = 0
KMC1 240521Z 20005KT 21/11 A2986 RMK A01 T02120113  RH  053%=      5-min Rain = 0
KMC1 240522Z 20005KT 21/11 A2986 RMK A01 T02130113  RH  053%=      5-min Rain = 0
KMC1 240523Z 20006KT 21/11 A2986 RMK A01 T02120114  RH  053%=      5-min Rain = 0
KMC1 240524Z 19006KT 21/11 A2986 RMK A01 T02110113  RH  054%=      5-min Rain = 0
KMC1 240525Z 20006KT 21/11 A2986 RMK A01 T02110114  RH  054%=      5-min Rain = 0
KMC1 240526Z 20005KT 21/11 A2986 RMK A01 T02100114  RH  054%=      5-min Rain = 0
KMC1 240527Z 19004KT 21/11 A2986 RMK A01 T02100113  RH  054%=      5-min Rain = 0
KMC1 240528Z 20006KT 21/11 A2986 RMK A01 T02100113  RH  054%=      5-min Rain = 0
KMC1 240529Z 19007KT 21/11 A2986 RMK A01 T02110112  RH  053%=      5-min Rain = 0
KMC1 240530Z 19008KT 21/11 A2987 RMK A01 T02110112  RH  053%=      5-min Rain = 0
KMC1 240531Z 19007KT 21/11 A2987 RMK A01 T02110111  RH  053%=      5-min Rain = 0
KMC1 240532Z 18006KT 21/11 A2986 RMK A01 T02130110  RH  052%=      5-min Rain = 0
KMC1 240533Z 17008KT 22/11 A2986 RMK A01 T02160110  RH  051%=      5-min Rain = 0
KMC1 240534Z 18009KT 22/11 A2986 RMK A01 T02180110  RH  050%=      5-min Rain = 0
KMC1 240535Z 17007KT 22/11 A2987 RMK A01 T02190110  RH  050%=      5-min Rain = 0
KMC1 240536Z 18009G15KT 22/11 A2987 RMK A01 T02210111  RH  050%=      5-min Rain = 0
KMC1 240537Z 18011KT 22/11 A2987 RMK A01 T02220111  RH  049%=      5-min Rain = 0
KMC1 240538Z 17010G15KT 22/11 A2987 RMK A01 T02240112  RH  049%=      5-min Rain = 0
KMC1 240539Z 16012KT 23/11 A2987 RMK A01 T02260113  RH  049%=      5-min Rain = 0
KMC1 240540Z 16009KT 23/11 A2987 RMK A01 T02280114  RH  049%=      5-min Rain = 0
KMC1 240541Z 16008KT 23/11 A2986 RMK A01 T02280114  RH  048%=      5-min Rain = 0
KMC1 240542Z 16009G15KT 23/11 A2986 RMK A01 T02280114  RH  048%=      5-min Rain = 0
KMC1 240543Z 16012KT 23/11 A2987 RMK A01 T02290114  RH  048%=      5-min Rain = 0
KMC1 240544Z 16011KT 23/12 A2987 RMK A01 T02300115  RH  048%=      5-min Rain = 0
KMC1 240545Z 16010KT 23/12 A2987 RMK A01 T02300115  RH  048%=      5-min Rain = 0
KMC1 240546Z 15009KT 23/12 A2987 RMK A01 T02300115  RH  048%=      5-min Rain = 0
KMC1 240547Z 16008G14KT 23/12 A2987 RMK A01 T02300115  RH  048%=      5-min Rain = 0
KMC1 240548Z 15011KT 23/12 A2987 RMK A01 T02300115  RH  048%=      5-min Rain = 0
KMC1 240549Z 15009G15KT 23/12 A2987 RMK A01 T02300115  RH  048%=      5-min Rain = 0
KMC1 240550Z 15010KT 23/12 A2987 RMK A01 T02300115  RH  048%=      5-min Rain = 0
KMC1 240551Z 15012KT 23/12 A2987 RMK A01 T02300115  RH  048%=      5-min Rain = 0
KMC1 240552Z 15012G17KT 23/11 A2987 RMK A01 T02310114  RH  048%=      5-min Rain = 0
KMC1 240553Z 16010KT 23/12 A2987 RMK A01 T02320115  RH  048%=      5-min Rain = 0
KMC1 240554Z 16009KT 23/12 A2987 RMK A01 T02320115  RH  048%=      5-min Rain = 0
KMC1 240555Z 15008KT 23/12 A2987 RMK A01 T02320115  RH  048%=      5-min Rain = 0
KMC1 240556Z 15011G18KT 23/12 A2987 RMK A01 T02320115  RH  048%=      5-min Rain = 0
KMC1 240557Z 16007G13KT 23/11 A2987 RMK A01 T02320114  RH  048%=      5-min Rain = 0
KMC1 240558Z 15011G18KT 23/12 A2987 RMK A01 T02320115  RH  048%=      5-min Rain = 0
KMC1 240559Z 15009G14KT 23/11 A2987 RMK A01 T02320114  RH  048%=      5-min Rain = 0
KMC1 240600Z 15010KT 23/11 A2987 RMK A01 T02320114  RH  048%=      5-min Rain = 0
KMC1 240601Z 15011G18KT 23/12 A2987 RMK A01 T02320115  RH  048%=      5-min Rain = 0
KMC1 240602Z 15012KT 23/11 A2986 RMK A01 T02320114  RH  047%=      5-min Rain = 0
KMC1 240603Z 16009G15KT 23/11 A2986 RMK A01 T02320114  RH  047%=      5-min Rain = 0
KMC1 240604Z 15009G15KT 23/12 A2986 RMK A01 T02330115  RH  047%=      5-min Rain = 0
KMC1 240605Z 16010KT 23/11 A2986 RMK A01 T02320114  RH  047%=      5-min Rain = 0
KMC1 240606Z 15009G18KT 23/11 A2986 RMK A01 T02320114  RH  047%=      5-min Rain = 0
KMC1 240607Z 15012KT 23/11 A2986 RMK A01 T02320114  RH  047%=      5-min Rain = 0
KMC1 240608Z 15010KT 23/11 A2986 RMK A01 T02320113  RH  047%=      5-min Rain = 0
KMC1 240609Z 14008KT 23/11 A2986 RMK A01 T02320114  RH  047%=      5-min Rain = 0
KMC1 240610Z 15009KT 23/11 A2986 RMK A01 T02320114  RH  047%=      5-min Rain = 0
KMC1 240611Z 15009KT 23/11 A2986 RMK A01 T02320114  RH  047%=      5-min Rain = 0
KMC1 240612Z 15009KT 23/11 A2986 RMK A01 T02320114  RH  047%=      5-min Rain = 0
KMC1 240613Z 16008KT 23/11 A2986 RMK A01 T02320114  RH  048%=      5-min Rain = 0
KMC1 240614Z 16007KT 23/11 A2986 RMK A01 T02320114  RH  048%=      5-min Rain = 0
KMC1 240615Z 16012G17KT 23/11 A2986 RMK A01 T02310114  RH  048%=      5-min Rain = 0
KMC1 240616Z 16009KT 23/11 A2986 RMK A01 T02310114  RH  048%=      5-min Rain = 0
KMC1 240617Z 15011KT 23/11 A2986 RMK A01 T02310114  RH  048%=      5-min Rain = 0
KMC1 240618Z 15008KT 23/11 A2986 RMK A01 T02310114  RH  048%=      5-min Rain = 0
KMC1 240619Z 15007KT 23/11 A2986 RMK A01 T02310114  RH  048%=      5-min Rain = 0
KMC1 240620Z 15005KT 23/12 A2986 RMK A01 T02310115  RH  048%=      5-min Rain = 0
KMC1 240621Z 15005G11KT 23/12 A2986 RMK A01 T02300115  RH  048%=      5-min Rain = 0
KMC1 240622Z 15006G11KT 23/12 A2986 RMK A01 T02290115  RH  049%=      5-min Rain = 0
KMC1 240623Z 14005KT 23/12 A2986 RMK A01 T02280116  RH  049%=      5-min Rain = 0
KMC1 240624Z 16007G12KT 23/12 A2986 RMK A01 T02280115  RH  049%=      5-min Rain = 0
KMC1 240625Z 15006KT 23/12 A2986 RMK A01 T02270116  RH  049%=      5-min Rain = 0
KMC1 240626Z 15008KT 23/12 A2986 RMK A01 T02270116  RH  050%=      5-min Rain = 0
KMC1 240627Z 14009KT 23/12 A2986 RMK A01 T02270116  RH  050%=      5-min Rain = 0
KMC1 240628Z 13010G15KT 23/12 A2986 RMK A01 T02270117  RH  050%=      5-min Rain = 0
KMC1 240629Z 13007KT 23/12 A2986 RMK A01 T02270117  RH  050%=      5-min Rain = 0
KMC1 240630Z 12007KT 23/12 A2986 RMK A01 T02270117  RH  050%=      5-min Rain = 0
KMC1 240631Z 13008KT 23/12 A2985 RMK A01 T02270118  RH  050%=      5-min Rain = 0
KMC1 240632Z 12007KT 23/12 A2985 RMK A01 T02260117  RH  050%=      5-min Rain = 0
KMC1 240633Z 13011KT 23/12 A2985 RMK A01 T02260118  RH  050%=      5-min Rain = 0
KMC1 240634Z 13009KT 23/12 A2985 RMK A01 T02260118  RH  051%=      5-min Rain = 0
KMC1 240635Z 13007KT 23/12 A2985 RMK A01 T02260119  RH  051%=      5-min Rain = 0
KMC1 240636Z 14009KT 23/12 A2985 RMK A01 T02260119  RH  051%=      5-min Rain = 0
KMC1 240637Z 13007KT 23/12 A2985 RMK A01 T02250119  RH  051%=      5-min Rain = 0
KMC1 240638Z 12009KT 23/12 A2985 RMK A01 T02250120  RH  051%=      5-min Rain = 0
KMC1 240639Z 13009KT 22/12 A2985 RMK A01 T02240120  RH  051%=      5-min Rain = 0
KMC1 240640Z 13008KT 23/12 A2985 RMK A01 T02250120  RH  052%=      5-min Rain = 0
KMC1 240641Z 13007KT 22/12 A2985 RMK A01 T02240120  RH  052%=      5-min Rain = 0
KMC1 240642Z 13009G14KT 22/12 A2985 RMK A01 T02240121  RH  052%=      5-min Rain = 0
KMC1 240643Z 13009KT 22/12 A2985 RMK A01 T02240121  RH  052%=      5-min Rain = 0
KMC1 240644Z 13009KT 22/12 A2985 RMK A01 T02230121  RH  052%=      5-min Rain = 0
KMC1 240645Z 13010KT 22/12 A2985 RMK A01 T02230121  RH  052%=      5-min Rain = 0
KMC1 240646Z 13009KT 22/12 A2985 RMK A01 T02230121  RH  052%=      5-min Rain = 0
KMC1 240647Z 13008KT 22/12 A2985 RMK A01 T02230121  RH  052%=      5-min Rain = 0
KMC1 240648Z 14008KT 22/12 A2985 RMK A01 T02230121  RH  052%=      5-min Rain = 0
KMC1 240649Z 13009G14KT 22/12 A2985 RMK A01 T02220121  RH  053%=      5-min Rain = 0
KMC1 240650Z 14009G15KT 22/12 A2985 RMK A01 T02220121  RH  053%=      5-min Rain = 0
KMC1 240651Z 14007KT 22/12 A2985 RMK A01 T02220120  RH  053%=      5-min Rain = 0
KMC1 240652Z 14008KT 22/12 A2985 RMK A01 T02220121  RH  053%=      5-min Rain = 0
KMC1 240653Z 15009KT 22/12 A2985 RMK A01 T02220121  RH  053%=      5-min Rain = 0
KMC1 240654Z 13010KT 22/12 A2985 RMK A01 T02220121  RH  053%=      5-min Rain = 0
KMC1 240655Z 14010G17KT 22/12 A2985 RMK A01 T02230121  RH  053%=      5-min Rain = 0
KMC1 240656Z 14007KT 22/12 A2985 RMK A01 T02230121  RH  053%=      5-min Rain = 0
KMC1 240657Z 13009KT 22/12 A2985 RMK A01 T02230122  RH  053%=      5-min Rain = 0
KMC1 240658Z 14009G15KT 22/12 A2985 RMK A01 T02230122  RH  053%=      5-min Rain = 0
KMC1 240659Z 14008G15KT 22/12 A2986 RMK A01 T02230122  RH  053%=      5-min Rain = 0
KMC1 240700Z 14010G15KT 22/12 A2986 RMK A01 T02220122  RH  053%=      5-min Rain = 0
KMC1 240701Z 14010KT 22/12 A2986 RMK A01 T02220122  RH  053%=      5-min Rain = 0
KMC1 240702Z 13008KT 22/12 A2986 RMK A01 T02230122  RH  053%=      5-min Rain = 0
KMC1 240703Z 13007KT 22/12 A2986 RMK A01 T02220122  RH  053%=      5-min Rain = 0
KMC1 240704Z 14008G13KT 22/12 A2986 RMK A01 T02220123  RH  053%=      5-min Rain = 0
KMC1 240705Z 13006KT 22/12 A2986 RMK A01 T02210122  RH  053%=      5-min Rain = 0
KMC1 240706Z 13007KT 22/12 A2986 RMK A01 T02210123  RH  054%=      5-min Rain = 0
KMC1 240707Z 13007KT 22/12 A2986 RMK A01 T02200123  RH  054%=      5-min Rain = 0
KMC1 240708Z 12007KT 22/12 A2986 RMK A01 T02200123  RH  054%=      5-min Rain = 0
KMC1 240709Z 13007G12KT 22/12 A2986 RMK A01 T02190122  RH  054%=      5-min Rain = 0
KMC1 240710Z 14007G13KT 22/12 A2986 RMK A01 T02190123  RH  054%=      5-min Rain = 0
KMC1 240711Z 14008KT 22/12 A2986 RMK A01 T02190123  RH  054%=      5-min Rain = 0
KMC1 240712Z 13008KT 22/12 A2986 RMK A01 T02190123  RH  054%=      5-min Rain = 0
KMC1 240713Z 13009KT 22/12 A2985 RMK A01 T02190123  RH  054%=      5-min Rain = 0
KMC1 240714Z 13010G15KT 22/12 A2985 RMK A01 T02190123  RH  054%=      5-min Rain = 0
KMC1 240715Z 13009G14KT 22/12 A2985 RMK A01 T02190123  RH  054%=      5-min Rain = 0
KMC1 240716Z 14007G13KT 22/12 A2985 RMK A01 T02200124  RH  054%=      5-min Rain = 0
KMC1 240717Z 13007KT 22/12 A2985 RMK A01 T02200124  RH  054%=      5-min Rain = 0
KMC1 240718Z 14006KT 22/12 A2985 RMK A01 T02190123  RH  055%=      5-min Rain = 0
KMC1 240719Z 14005KT 22/12 A2986 RMK A01 T02190124  RH  055%=      5-min Rain = 0
KMC1 240720Z 14005KT 22/12 A2985 RMK A01 T02180124  RH  055%=      5-min Rain = 0
KMC1 240721Z 14008KT 22/12 A2985 RMK A01 T02170124  RH  055%=      5-min Rain = 0
KMC1 240722Z 14006G11KT 22/12 A2985 RMK A01 T02170124  RH  055%=      5-min Rain = 0
KMC1 240723Z 14006KT 22/12 A2985 RMK A01 T02170124  RH  055%=      5-min Rain = 0
KMC1 240724Z 14005KT 22/12 A2985 RMK A01 T02170124  RH  055%=      5-min Rain = 0
KMC1 240725Z 15008KT 22/12 A2986 RMK A01 T02160124  RH  056%=      5-min Rain = 0
KMC1 240726Z 16007KT 22/12 A2986 RMK A01 T02160124  RH  056%=      5-min Rain = 0
KMC1 240727Z 16004KT 22/13 A2986 RMK A01 T02160125  RH  056%=      5-min Rain = 0
KMC1 240728Z 14006KT 22/13 A2986 RMK A01 T02160125  RH  056%=      5-min Rain = 0
KMC1 240729Z 16009KT 22/13 A2986 RMK A01 T02150125  RH  056%=      5-min Rain = 0
KMC1 240730Z 17010KT 22/13 A2987 RMK A01 T02150125  RH  056%=      5-min Rain = 0
KMC1 240731Z 17008KT 22/13 A2987 RMK A01 T02150125  RH  056%=      5-min Rain = 0
KMC1 240732Z 16005G10KT 22/13 A2986 RMK A01 T02150125  RH  057%=      5-min Rain = 0
KMC1 240733Z 17007KT 22/13 A2986 RMK A01 T02150125  RH  057%=      5-min Rain = 0
KMC1 240734Z 18009KT 22/13 A2987 RMK A01 T02150125  RH  057%=      5-min Rain = 0
KMC1 240735Z 18005KT 21/13 A2987 RMK A01 T02140126  RH  057%=      5-min Rain = 0
KMC1 240736Z 18006KT 21/13 A2986 RMK A01 T02140126  RH  057%=      5-min Rain = 0
KMC1 240737Z 18007KT 21/13 A2986 RMK A01 T02130126  RH  058%=      5-min Rain = 0
KMC1 240738Z 19008KT 21/13 A2987 RMK A01 T02120126  RH  058%=      5-min Rain = 0
KMC1 240739Z 17006KT 21/13 A2986 RMK A01 T02120126  RH  058%=      5-min Rain = 0
KMC1 240740Z 15007KT 21/13 A2986 RMK A01 T02120126  RH  058%=      5-min Rain = 0
KMC1 240741Z 15007KT 21/13 A2986 RMK A01 T02120127  RH  058%=      5-min Rain = 0
KMC1 240742Z 17007KT 21/13 A2986 RMK A01 T02110127  RH  058%=      5-min Rain = 0
KMC1 240743Z 17009KT 21/13 A2986 RMK A01 T02120127  RH  058%=      5-min Rain = 0
KMC1 240744Z 17009KT 21/13 A2986 RMK A01 T02110127  RH  059%=      5-min Rain = 0
KMC1 240745Z 15007KT 21/13 A2986 RMK A01 T02120127  RH  059%=      5-min Rain = 0
KMC1 240746Z 16006KT 21/13 A2986 RMK A01 T02110127  RH  059%=      5-min Rain = 0
KMC1 240747Z 16007KT 21/13 A2985 RMK A01 T02110127  RH  059%=      5-min Rain = 0
KMC1 240748Z 17007KT 21/13 A2985 RMK A01 T02110127  RH  059%=      5-min Rain = 0
KMC1 240749Z 17010KT 21/13 A2986 RMK A01 T02110127  RH  059%=      5-min Rain = 0
KMC1 240750Z 17007KT 21/13 A2986 RMK A01 T02110127  RH  059%=      5-min Rain = 0
KMC1 240751Z 17007KT 21/13 A2986 RMK A01 T02110127  RH  059%=      5-min Rain = 0
KMC1 240752Z 17008KT 21/13 A2986 RMK A01 T02110127  RH  059%=      5-min Rain = 0
KMC1 240753Z 16007KT 21/13 A2986 RMK A01 T02110127  RH  059%=      5-min Rain = 0
KMC1 240754Z 17008KT 21/13 A2986 RMK A01 T02100127  RH  059%=      5-min Rain = 0
KMC1 240755Z 18010KT 21/13 A2986 RMK A01 T02110128  RH  059%=      5-min Rain = 0
KMC1 240756Z 16007KT 21/13 A2986 RMK A01 T02100127  RH  059%=      5-min Rain = 0
KMC1 240757Z 18007KT 21/13 A2985 RMK A01 T02100127  RH  059%=      5-min Rain = 0
KMC1 240758Z 16005KT 21/13 A2985 RMK A01 T02100127  RH  059%=      5-min Rain = 0
KMC1 240759Z 17005KT 21/13 A2985 RMK A01 T02100127  RH  059%=      5-min Rain = 0
KMC1 240800Z 17008KT 21/13 A2985 RMK A01 T02090127  RH  059%=      5-min Rain = 0
KMC1 240801Z 18007G12KT 21/13 A2986 RMK A01 T02090128  RH  059%=      5-min Rain = 0
KMC1 240802Z 18008G13KT 21/13 A2986 RMK A01 T02090127  RH  060%=      5-min Rain = 0
KMC1 240803Z 18006KT 21/13 A2985 RMK A01 T02090127  RH  059%=      5-min Rain = 0
KMC1 240804Z 18007KT 21/13 A2985 RMK A01 T02090127  RH  059%=      5-min Rain = 0
KMC1 240805Z 17006KT 21/13 A2985 RMK A01 T02090127  RH  059%=      5-min Rain = 0
KMC1 240806Z 17004KT 21/13 A2985 RMK A01 T02090127  RH  060%=      5-min Rain = 0
KMC1 240807Z 17004KT 21/13 A2985 RMK A01 T02080127  RH  060%=      5-min Rain = 0
KMC1 240808Z 18005KT 21/13 A2985 RMK A01 T02070127  RH  060%=      5-min Rain = 0
KMC1 240809Z 19006KT 21/13 A2984 RMK A01 T02070127  RH  060%=      5-min Rain = 0
KMC1 240810Z 18005KT 21/13 A2984 RMK A01 T02080127  RH  060%=      5-min Rain = 0
KMC1 240811Z 18005KT 21/13 A2985 RMK A01 T02070127  RH  060%=      5-min Rain = 0
KMC1 240812Z 19004KT 21/13 A2984 RMK A01 T02070127  RH  060%=      5-min Rain = 0
KMC1 240813Z 17005KT 21/13 A2984 RMK A01 T02060127  RH  060%=      5-min Rain = 0
KMC1 240814Z 17004KT 21/13 A2984 RMK A01 T02060127  RH  061%=      5-min Rain = 0
KMC1 240815Z 17004KT 21/13 A2984 RMK A01 T02050127  RH  061%=      5-min Rain = 0
KMC1 240816Z 17006KT 21/13 A2984 RMK A01 T02050127  RH  061%=      5-min Rain = 0
KMC1 240817Z 18005KT 21/13 A2984 RMK A01 T02050126  RH  061%=      5-min Rain = 0
KMC1 240818Z 19004KT 21/13 A2984 RMK A01 T02050127  RH  061%=      5-min Rain = 0
KMC1 240819Z 19005KT 21/13 A2984 RMK A01 T02050127  RH  061%=      5-min Rain = 0
KMC1 240820Z 19005KT 21/13 A2984 RMK A01 T02050126  RH  061%=      5-min Rain = 0
KMC1 240821Z 18005KT 21/13 A2984 RMK A01 T02050127  RH  061%=      5-min Rain = 0
KMC1 240822Z 18004KT 20/13 A2984 RMK A01 T02040127  RH  061%=      5-min Rain = 0
KMC1 240823Z 18004KT 20/13 A2984 RMK A01 T02040127  RH  061%=      5-min Rain = 0
KMC1 240824Z 18004KT 20/13 A2984 RMK A01 T02030126  RH  061%=      5-min Rain = 0
KMC1 240825Z 19004KT 20/13 A2984 RMK A01 T02030126  RH  061%=      5-min Rain = 0
KMC1 240826Z 19004KT 20/13 A2984 RMK A01 T02020126  RH  062%=      5-min Rain = 0
KMC1 240827Z 18003KT 20/13 A2984 RMK A01 T02020126  RH  062%=      5-min Rain = 0
KMC1 240828Z 19005KT 20/13 A2984 RMK A01 T02010126  RH  062%=      5-min Rain = 0
KMC1 240829Z 19004KT 20/13 A2984 RMK A01 T02010126  RH  062%=      5-min Rain = 0
KMC1 240830Z 19004KT 20/13 A2984 RMK A01 T02010126  RH  062%=      5-min Rain = 0
KMC1 240831Z 20004KT 20/13 A2984 RMK A01 T02000126  RH  062%=      5-min Rain = 0
KMC1 240832Z 19004KT 20/13 A2983 RMK A01 T02010127  RH  062%=      5-min Rain = 0
KMC1 240833Z 20004KT 20/13 A2983 RMK A01 T02000126  RH  062%=      5-min Rain = 0
KMC1 240834Z 20003KT 20/13 A2983 RMK A01 T02000126  RH  062%=      5-min Rain = 0
KMC1 240835Z 20003KT 20/13 A2983 RMK A01 T02000126  RH  063%=      5-min Rain = 0
KMC1 240836Z 20003KT 20/13 A2983 RMK A01 T01990126  RH  063%=      5-min Rain = 0
KMC1 240837Z 18002KT 20/13 A2983 RMK A01 T01990126  RH  063%=      5-min Rain = 0
KMC1 240838Z 18003KT 20/13 A2983 RMK A01 T01980126  RH  063%=      5-min Rain = 0
KMC1 240839Z 18002KT 20/13 A2983 RMK A01 T01980127  RH  063%=      5-min Rain = 0
KMC1 240840Z 19002KT 20/13 A2983 RMK A01 T01980126  RH  063%=      5-min Rain = 0
KMC1 240841Z 19002KT 20/13 A2984 RMK A01 T01970126  RH  064%=      5-min Rain = 0
KMC1 240842Z 19002KT 20/13 A2984 RMK A01 T01970126  RH  064%=      5-min Rain = 0
KMC1 240843Z 19002KT 20/13 A2984 RMK A01 T01960126  RH  064%=      5-min Rain = 0
KMC1 240844Z 18001KT 20/13 A2984 RMK A01 T01960126  RH  064%=      5-min Rain = 0
KMC1 240845Z 17001KT 20/13 A2984 RMK A01 T01950126  RH  064%=      5-min Rain = 0
KMC1 240846Z 14001KT 20/13 A2984 RMK A01 T01950127  RH  065%=      5-min Rain = 0
KMC1 240847Z 11001KT 20/13 A2984 RMK A01 T01950127  RH  065%=      5-min Rain = 0
KMC1 240848Z 10001KT 20/13 A2984 RMK A01 T01950126  RH  065%=      5-min Rain = 0
KMC1 240849Z 08001KT 20/13 A2984 RMK A01 T01950127  RH  065%=      5-min Rain = 0
KMC1 240850Z 08001KT 19/13 A2984 RMK A01 T01940127  RH  065%=      5-min Rain = 0
KMC1 240851Z 09001KT 19/13 A2984 RMK A01 T01940127  RH  065%=      5-min Rain = 0
KMC1 240852Z 08001KT 19/13 A2984 RMK A01 T01930127  RH  065%=      5-min Rain = 0
KMC1 240853Z 10001KT 19/13 A2984 RMK A01 T01940127  RH  065%=      5-min Rain = 0
KMC1 240854Z 11001KT 19/13 A2984 RMK A01 T01930127  RH  065%=      5-min Rain = 0
KMC1 240855Z 13000KT 19/13 A2984 RMK A01 T01930127  RH  066%=      5-min Rain = 0
KMC1 240856Z 13000KT 19/13 A2984 RMK A01 T01920127  RH  066%=      5-min Rain = 0
KMC1 240857Z 16001KT 19/13 A2984 RMK A01 T01910127  RH  066%=      5-min Rain = 0
KMC1 240858Z 17000KT 19/13 A2984 RMK A01 T01900127  RH  067%=      5-min Rain = 0
KMC1 240859Z 18001KT 19/13 A2984 RMK A01 T01900127  RH  067%=      5-min Rain = 0
KMC1 240900Z 17001KT 19/13 A2984 RMK A01 T01890126  RH  067%=      5-min Rain = 0
KMC1 240901Z 17001KT 19/13 A2984 RMK A01 T01880126  RH  067%=      5-min Rain = 0
KMC1 240902Z 18002KT 19/13 A2984 RMK A01 T01870126  RH  067%=      5-min Rain = 0
KMC1 240903Z 19002KT 19/13 A2984 RMK A01 T01870127  RH  068%=      5-min Rain = 0
KMC1 240904Z 19002KT 19/13 A2984 RMK A01 T01870126  RH  068%=      5-min Rain = 0
KMC1 240905Z 18003KT 19/13 A2984 RMK A01 T01860126  RH  068%=      5-min Rain = 0
KMC1 240906Z 19003KT 19/13 A2984 RMK A01 T01850126  RH  068%=      5-min Rain = 0
KMC1 240907Z 19003KT 19/13 A2984 RMK A01 T01850126  RH  069%=      5-min Rain = 0
KMC1 240908Z 19003KT 19/13 A2984 RMK A01 T01850126  RH  069%=      5-min Rain = 0
KMC1 240909Z 20003KT 19/13 A2984 RMK A01 T01850127  RH  069%=      5-min Rain = 0
KMC1 240910Z 20004KT 19/13 A2984 RMK A01 T01850126  RH  068%=      5-min Rain = 0
KMC1 240911Z 20004KT 19/13 A2984 RMK A01 T01860126  RH  068%=      5-min Rain = 0
KMC1 240912Z 20003KT 19/13 A2984 RMK A01 T01860126  RH  068%=      5-min Rain = 0
KMC1 240913Z 20004KT 19/13 A2984 RMK A01 T01870127  RH  068%=      5-min Rain = 0
KMC1 240914Z 21004KT 19/13 A2984 RMK A01 T01860127  RH  068%=      5-min Rain = 0
KMC1 240915Z 21005KT 19/13 A2985 RMK A01 T01850126  RH  069%=      5-min Rain = 0
KMC1 240916Z 20004KT 18/13 A2985 RMK A01 T01840127  RH  069%=      5-min Rain = 0
KMC1 240917Z 21005KT 18/13 A2985 RMK A01 T01840127  RH  069%=      5-min Rain = 0
KMC1 240918Z 22005KT 18/13 A2985 RMK A01 T01840127  RH  069%=      5-min Rain = 0
KMC1 240919Z 22005KT 18/13 A2985 RMK A01 T01830127  RH  070%=      5-min Rain = 0
KMC1 240920Z 22005KT 18/13 A2985 RMK A01 T01820127  RH  070%=      5-min Rain = 0
KMC1 240921Z 22005KT 18/13 A2985 RMK A01 T01820127  RH  070%=      5-min Rain = 0
KMC1 240922Z 22005KT 18/13 A2986 RMK A01 T01820127  RH  070%=      5-min Rain = 0
KMC1 240923Z 23004KT 18/13 A2986 RMK A01 T01810127  RH  071%=      5-min Rain = 0
KMC1 240924Z 23004KT 18/13 A2986 RMK A01 T01810127  RH  071%=      5-min Rain = 0
KMC1 240925Z 23005KT 18/13 A2986 RMK A01 T01800127  RH  071%=      5-min Rain = 0
KMC1 240926Z 22005KT 18/13 A2986 RMK A01 T01790127  RH  071%=      5-min Rain = 0
KMC1 240927Z 22004KT 18/13 A2986 RMK A01 T01790127  RH  071%=      5-min Rain = 0
KMC1 240928Z 22004KT 18/13 A2986 RMK A01 T01780126  RH  072%=      5-min Rain = 0
KMC1 240929Z 22002KT 18/13 A2986 RMK A01 T01790127  RH  072%=      5-min Rain = 0
KMC1 240930Z 21002KT 18/13 A2986 RMK A01 T01780126  RH  072%=      5-min Rain = 0
KMC1 240931Z 20001KT 18/13 A2987 RMK A01 T01780127  RH  072%=      5-min Rain = 0
KMC1 240932Z 07000KT 18/13 A2987 RMK A01 T01780127  RH  072%=      5-min Rain = 0
KMC1 240933Z 04004KT 18/13 A2987 RMK A01 T01780127  RH  072%=      5-min Rain = 0
KMC1 240934Z 05006KT 18/13 A2987 RMK A01 T01770128  RH  073%=      5-min Rain = 0
KMC1 240935Z 05005KT 18/13 A2987 RMK A01 T01760128  RH  073%=      5-min Rain = 0
KMC1 240936Z 06004KT 18/13 A2987 RMK A01 T01760128  RH  073%=      5-min Rain = 0
KMC1 240937Z 07003KT 18/13 A2987 RMK A01 T01750128  RH  074%=      5-min Rain = 0
KMC1 240938Z 06003KT 18/13 A2987 RMK A01 T01750128  RH  074%=      5-min Rain = 0
KMC1 240939Z 07003KT 18/13 A2987 RMK A01 T01750128  RH  074%=      5-min Rain = 0
KMC1 240940Z 06004KT 18/13 A2987 RMK A01 T01750129  RH  074%=      5-min Rain = 0
KMC1 240941Z 06004KT 18/13 A2987 RMK A01 T01750128  RH  074%=      5-min Rain = 0
KMC1 240942Z 08004KT 18/13 A2987 RMK A01 T01750128  RH  074%=      5-min Rain = 0
KMC1 240943Z 08003KT 18/13 A2987 RMK A01 T01760128  RH  074%=      5-min Rain = 0
KMC1 240944Z 10004KT 18/13 A2987 RMK A01 T01760128  RH  073%=      5-min Rain = 0
KMC1 240945Z 11004KT 18/13 A2987 RMK A01 T01770128  RH  073%=      5-min Rain = 0
KMC1 240946Z 13004KT 18/13 A2987 RMK A01 T01780128  RH  073%=      5-min Rain = 0
KMC1 240947Z 15005KT 18/13 A2987 RMK A01 T01780128  RH  072%=      5-min Rain = 0
KMC1 240948Z 16005KT 18/13 A2987 RMK A01 T01780128  RH  073%=      5-min Rain = 0
KMC1 240949Z 17006KT 18/13 A2987 RMK A01 T01780129  RH  073%=      5-min Rain = 0
KMC1 240950Z 18007KT 18/13 A2987 RMK A01 T01790129  RH  073%=      5-min Rain = 0
KMC1 240951Z 18008KT 18/13 A2987 RMK A01 T01800129  RH  072%=      5-min Rain = 0
KMC1 240952Z 18008KT 18/13 A2987 RMK A01 T01810129  RH  072%=      5-min Rain = 0
KMC1 240953Z 17008KT 18/13 A2987 RMK A01 T01820130  RH  071%=      5-min Rain = 0
KMC1 240954Z 17008KT 18/13 A2987 RMK A01 T01830130  RH  071%=      5-min Rain = 0
KMC1 240955Z 17008KT 18/13 A2987 RMK A01 T01840131  RH  071%=      5-min Rain = 0
KMC1 240956Z 17007KT 19/13 A2987 RMK A01 T01850131  RH  071%=      5-min Rain = 0
KMC1 240957Z 17007KT 19/13 A2987 RMK A01 T01860131  RH  070%=      5-min Rain = 0
KMC1 240958Z 17007KT 19/13 A2987 RMK A01 T01870131  RH  070%=      5-min Rain = 0
KMC1 240959Z 18006KT 19/13 A2987 RMK A01 T01870131  RH  070%=      5-min Rain = 0
KMC1 241000Z 18006KT 19/13 A2987 RMK A01 T01870131  RH  070%=      5-min Rain = 0
KMC1 241001Z 18006KT 19/13 A2987 RMK A01 T01870132  RH  070%=      5-min Rain = 0
KMC1 241002Z 18005KT 19/13 A2987 RMK A01 T01870132  RH  070%=      5-min Rain = 0
KMC1 241003Z 18007KT 19/13 A2987 RMK A01 T01870132  RH  071%=      5-min Rain = 0
KMC1 241004Z 18004KT 19/13 A2987 RMK A01 T01870133  RH  071%=      5-min Rain = 0
KMC1 241005Z 18006KT 19/13 A2987 RMK A01 T01870133  RH  071%=      5-min Rain = 0
KMC1 241006Z 17005KT 19/13 A2987 RMK A01 T01880134  RH  071%=      5-min Rain = 0
KMC1 241007Z 17002KT 19/13 A2987 RMK A01 T01880134  RH  071%=      5-min Rain = 0
KMC1 241008Z 18003KT 19/13 A2987 RMK A01 T01880134  RH  071%=      5-min Rain = 0
KMC1 241009Z 17005KT 19/13 A2987 RMK A01 T01880134  RH  071%=      5-min Rain = 0
KMC1 241010Z 17003KT 19/14 A2987 RMK A01 T01880135  RH  071%=      5-min Rain = 0
KMC1 241011Z 17004KT 19/14 A2987 RMK A01 T01880136  RH  071%=      5-min Rain = 0
KMC1 241012Z 17003KT 19/14 A2987 RMK A01 T01880136  RH  072%=      5-min Rain = 0
KMC1 241013Z 17003KT 19/14 A2987 RMK A01 T01880136  RH  071%=      5-min Rain = 0
KMC1 241014Z 16003KT 19/14 A2987 RMK A01 T01880136  RH  072%=      5-min Rain = 0
KMC1 241015Z 18003KT 19/14 A2987 RMK A01 T01880136  RH  072%=      5-min Rain = 0
KMC1 241016Z 18004KT 19/14 A2987 RMK A01 T01880136  RH  072%=      5-min Rain = 0
KMC1 241017Z 19004KT 19/14 A2987 RMK A01 T01880137  RH  072%=      5-min Rain = 0
KMC1 241018Z 18004KT 19/14 A2987 RMK A01 T01870137  RH  072%=      5-min Rain = 0
KMC1 241019Z 19004KT 19/14 A2987 RMK A01 T01870137  RH  073%=      5-min Rain = 0
KMC1 241020Z 19004KT 19/14 A2987 RMK A01 T01870138  RH  073%=      5-min Rain = 0
KMC1 241021Z 19004KT 19/14 A2987 RMK A01 T01860138  RH  073%=      5-min Rain = 0
KMC1 241022Z 19004KT 19/14 A2987 RMK A01 T01860139  RH  074%=      5-min Rain = 0
KMC1 241023Z 19004KT 19/14 A2987 RMK A01 T01850139  RH  074%=      5-min Rain = 0
KMC1 241024Z 20005KT 19/14 A2987 RMK A01 T01850139  RH  074%=      5-min Rain = 0
KMC1 241025Z 20004KT 19/14 A2987 RMK A01 T01860140  RH  075%=      5-min Rain = 0
KMC1 241026Z 20006KT 19/14 A2987 RMK A01 T01860141  RH  075%=      5-min Rain = 0
KMC1 241027Z 19006KT 19/14 A2987 RMK A01 T01860141  RH  075%=      5-min Rain = 0
KMC1 241028Z 19005KT 19/14 A2987 RMK A01 T01870142  RH  075%=      5-min Rain = 0
KMC1 241029Z 20006KT 19/14 A2987 RMK A01 T01870143  RH  075%=      5-min Rain = 0
KMC1 241030Z 19006KT 19/14 A2987 RMK A01 T01870143  RH  076%=      5-min Rain = 0
KMC1 241031Z 20007KT 19/15 A2987 RMK A01 T01880145  RH  076%=      5-min Rain = 0
KMC1 241032Z 20007KT 19/15 A2987 RMK A01 T01880145  RH  076%=      5-min Rain = 0
KMC1 241033Z 20006G11KT 19/15 A2987 RMK A01 T01880146  RH  076%=      5-min Rain = 0
KMC1 241034Z 19006KT 19/15 A2987 RMK A01 T01890146  RH  076%=      5-min Rain = 0
KMC1 241035Z 19006KT 19/15 A2987 RMK A01 T01890147  RH  076%=      5-min Rain = 0
KMC1 241036Z 19005KT 19/15 A2987 RMK A01 T01890147  RH  076%=      5-min Rain = 0
KMC1 241037Z 20005KT 19/15 A2987 RMK A01 T01900147  RH  076%=      5-min Rain = 0
KMC1 241038Z 19004KT 19/15 A2987 RMK A01 T01890148  RH  077%=      5-min Rain = 0
KMC1 241039Z 19005KT 19/15 A2986 RMK A01 T01890148  RH  077%=      5-min Rain = 0
KMC1 241040Z 20004KT 19/15 A2987 RMK A01 T01890148  RH  077%=      5-min Rain = 0
KMC1 241041Z 19005KT 19/15 A2987 RMK A01 T01890148  RH  077%=      5-min Rain = 0
KMC1 241042Z 20005KT 19/15 A2987 RMK A01 T01890149  RH  077%=      5-min Rain = 0
KMC1 241043Z 18005KT 19/15 A2987 RMK A01 T01900149  RH  077%=      5-min Rain = 0
KMC1 241044Z 19005KT 19/15 A2987 RMK A01 T01890149  RH  077%=      5-min Rain = 0
KMC1 241045Z 19005KT 19/15 A2987 RMK A01 T01900150  RH  077%=      5-min Rain = 0
KMC1 241046Z 18005KT 19/15 A2987 RMK A01 T01900150  RH  077%=      5-min Rain = 0
KMC1 241047Z 18004KT 19/15 A2987 RMK A01 T01900150  RH  077%=      5-min Rain = 0
KMC1 241048Z 19003KT 19/15 A2987 RMK A01 T01910150  RH  077%=      5-min Rain = 0
KMC1 241049Z 19004KT 19/15 A2987 RMK A01 T01900150  RH  077%=      5-min Rain = 0
KMC1 241050Z 19003KT 19/15 A2987 RMK A01 T01900150  RH  078%=      5-min Rain = 0
KMC1 241051Z 19003KT 19/15 A2987 RMK A01 T01890150  RH  078%=      5-min Rain = 0
KMC1 241052Z 19002KT 19/15 A2987 RMK A01 T01890149  RH  078%=      5-min Rain = 0
KMC1 241053Z 19003KT 19/15 A2987 RMK A01 T01880150  RH  078%=      5-min Rain = 0
KMC1 241054Z 21004KT 19/15 A2987 RMK A01 T01880150  RH  078%=      5-min Rain = 0
KMC1 241055Z 21003KT 19/15 A2987 RMK A01 T01880149  RH  078%=      5-min Rain = 0
KMC1 241056Z 20003KT 19/15 A2987 RMK A01 T01880149  RH  078%=      5-min Rain = 0
KMC1 241057Z 21003KT 19/15 A2987 RMK A01 T01870149  RH  078%=      5-min Rain = 0
KMC1 241058Z 21003KT 19/15 A2987 RMK A01 T01870149  RH  078%=      5-min Rain = 0
KMC1 241059Z 21003KT 19/15 A2987 RMK A01 T01870149  RH  079%=      5-min Rain = 0
KMC1 241100Z 22002KT 19/15 A2987 RMK A01 T01870149  RH  078%=      5-min Rain = 0
KMC1 241101Z 22002KT 19/15 A2987 RMK A01 T01860149  RH  079%=      5-min Rain = 0
KMC1 241102Z 24001KT 19/15 A2987 RMK A01 T01850148  RH  079%=      5-min Rain = 0
KMC1 241103Z 24001KT 19/15 A2987 RMK A01 T01850147  RH  079%=      5-min Rain = 0
KMC1 241104Z 24002KT 18/15 A2987 RMK A01 T01830145  RH  078%=      5-min Rain = 0
KMC1 241105Z 24002KT 18/15 A2987 RMK A01 T01820145  RH  079%=      5-min Rain = 0
KMC1 241106Z 23003KT 18/14 A2987 RMK A01 T01810144  RH  079%=      5-min Rain = 0
KMC1 241107Z 23003KT 18/14 A2987 RMK A01 T01790143  RH  079%=      5-min Rain = 0
KMC1 241108Z 23003KT 18/14 A2987 RMK A01 T01780143  RH  080%=      5-min Rain = 0
KMC1 241109Z 23003KT 18/14 A2987 RMK A01 T01770143  RH  080%=      5-min Rain = 0
KMC1 241110Z 22003KT 18/14 A2986 RMK A01 T01760143  RH  081%=      5-min Rain = 0
KMC1 241111Z 22004KT 18/14 A2986 RMK A01 T01750143  RH  081%=      5-min Rain = 0
KMC1 241112Z 22004KT 18/14 A2986 RMK A01 T01750143  RH  081%=      5-min Rain = 0
KMC1 241113Z 21004KT 17/14 A2986 RMK A01 T01740143  RH  082%=      5-min Rain = 0
KMC1 241114Z 21004KT 17/14 A2986 RMK A01 T01740143  RH  082%=      5-min Rain = 0
KMC1 241115Z 21004KT 17/14 A2986 RMK A01 T01740143  RH  082%=      5-min Rain = 0
KMC1 241116Z 21004KT 17/14 A2986 RMK A01 T01740144  RH  083%=      5-min Rain = 0
KMC1 241117Z 20004KT 17/14 A2986 RMK A01 T01740144  RH  083%=      5-min Rain = 0
KMC1 241118Z 20004KT 17/14 A2986 RMK A01 T01730144  RH  083%=      5-min Rain = 0
KMC1 241119Z 19004KT 17/15 A2986 RMK A01 T01730145  RH  083%=      5-min Rain = 0
KMC1 241120Z 20004KT 17/15 A2986 RMK A01 T01730146  RH  084%=      5-min Rain = 0
KMC1 241121Z 19004KT 17/15 A2986 RMK A01 T01730146  RH  084%=      5-min Rain = 0
KMC1 241122Z 19005KT 17/15 A2986 RMK A01 T01730146  RH  084%=      5-min Rain = 0
KMC1 241123Z 19005KT 17/15 A2987 RMK A01 T01730146  RH  084%=      5-min Rain = 0
KMC1 241124Z 19005KT 17/15 A2987 RMK A01 T01730147  RH  084%=      5-min Rain = 0
KMC1 241125Z 19005KT 17/15 A2987 RMK A01 T01740148  RH  084%=      5-min Rain = 0
KMC1 241126Z 19005KT 17/15 A2987 RMK A01 T01740148  RH  084%=      5-min Rain = 0
KMC1 241127Z 19006KT 18/15 A2987 RMK A01 T01750148  RH  084%=      5-min Rain = 0
KMC1 241128Z 18006KT 18/15 A2987 RMK A01 T01760149  RH  084%=      5-min Rain = 0
KMC1 241129Z 18004KT 18/15 A2987 RMK A01 T01770149  RH  084%=      5-min Rain = 0
KMC1 241130Z 18006KT 18/15 A2987 RMK A01 T01770149  RH  083%=      5-min Rain = 0
KMC1 241131Z 19006KT 18/15 A2987 RMK A01 T01780150  RH  083%=      5-min Rain = 0
KMC1 241132Z 18006KT 18/15 A2987 RMK A01 T01790150  RH  083%=      5-min Rain = 0
KMC1 241133Z 18005KT 18/15 A2987 RMK A01 T01790150  RH  083%=      5-min Rain = 0
KMC1 241134Z 18006KT 18/15 A2987 RMK A01 T01790150  RH  083%=      5-min Rain = 0
KMC1 241135Z 18007KT 18/15 A2987 RMK A01 T01790150  RH  083%=      5-min Rain = 0
KMC1 241136Z 18005KT 18/15 A2987 RMK A01 T01790150  RH  083%=      5-min Rain = 0
KMC1 241137Z 18006KT 18/15 A2987 RMK A01 T01800150  RH  083%=      5-min Rain = 0
KMC1 241138Z 19005KT 18/15 A2987 RMK A01 T01800150  RH  083%=      5-min Rain = 0
KMC1 241139Z 19005KT 18/15 A2987 RMK A01 T01800150  RH  083%=      5-min Rain = 0
KMC1 241140Z 19004KT 18/15 A2987 RMK A01 T01800150  RH  083%=      5-min Rain = 0
KMC1 241141Z 19004KT 18/15 A2987 RMK A01 T01790150  RH  083%=      5-min Rain = 0
KMC1 241142Z 19006KT 18/15 A2987 RMK A01 T01790150  RH  083%=      5-min Rain = 0
KMC1 241143Z 20006KT 18/15 A2987 RMK A01 T01780150  RH  083%=      5-min Rain = 0
KMC1 241144Z 20006KT 18/15 A2988 RMK A01 T01780150  RH  084%=      5-min Rain = 0
KMC1 241145Z 20008KT 18/15 A2987 RMK A01 T01780150  RH  084%=      5-min Rain = 0
KMC1 241146Z 19007KT 18/15 A2988 RMK A01 T01780150  RH  084%=      5-min Rain = 0
KMC1 241147Z 20008KT 18/15 A2987 RMK A01 T01780150  RH  084%=      5-min Rain = 0
KMC1 241148Z 20007KT 18/15 A2987 RMK A01 T01780151  RH  084%=      5-min Rain = 0
KMC1 241149Z 20007KT 18/15 A2987 RMK A01 T01780151  RH  084%=      5-min Rain = 0
KMC1 241150Z 20007KT 18/15 A2988 RMK A01 T01780151  RH  084%=      5-min Rain = 0
KMC1 241151Z 20007KT 18/15 A2988 RMK A01 T01790151  RH  084%=      5-min Rain = 0
KMC1 241152Z 20007KT 18/15 A2987 RMK A01 T01790151  RH  084%=      5-min Rain = 0
KMC1 241153Z 20007KT 18/15 A2988 RMK A01 T01790152  RH  084%=      5-min Rain = 0
KMC1 241154Z 19006KT 18/15 A2988 RMK A01 T01790152  RH  084%=      5-min Rain = 0
KMC1 241155Z 20007KT 18/15 A2988 RMK A01 T01790152  RH  084%=      5-min Rain = 0
KMC1 241156Z 19007G12KT 18/15 A2988 RMK A01 T01790152  RH  084%=      5-min Rain = 0
KMC1 241157Z 20007KT 18/15 A2988 RMK A01 T01790152  RH  085%=      5-min Rain = 0
KMC1 241158Z 20006KT 18/15 A2988 RMK A01 T01790152  RH  085%=      5-min Rain = 0
KMC1 241159Z 20007KT 18/15 A2988 RMK A01 T01780152  RH  084%=      5-min Rain = 0
KMC1 241200Z 20006KT 18/15 A2988 RMK A01 T01790152  RH  085%=      5-min Rain = 0
KMC1 241201Z 20007KT 18/15 A2988 RMK A01 T01790153  RH  085%=      5-min Rain = 0
KMC1 241202Z 20007KT 18/15 A2988 RMK A01 T01790153  RH  085%=      5-min Rain = 0
KMC1 241203Z 19006KT 18/15 A2988 RMK A01 T01800153  RH  084%=      5-min Rain = 0
KMC1 241204Z 19005KT 18/15 A2988 RMK A01 T01800153  RH  084%=      5-min Rain = 0
KMC1 241205Z 20006KT 18/15 A2988 RMK A01 T01800153  RH  084%=      5-min Rain = 0
KMC1 241206Z 20006KT 18/15 A2988 RMK A01 T01800153  RH  084%=      5-min Rain = 0
KMC1 241207Z 20005KT 18/15 A2988 RMK A01 T01810154  RH  084%=      5-min Rain = 0
KMC1 241208Z 19006KT 18/15 A2988 RMK A01 T01820154  RH  084%=      5-min Rain = 0
KMC1 241209Z 21006KT 18/15 A2988 RMK A01 T01810154  RH  084%=      5-min Rain = 0
KMC1 241210Z 20006KT 18/15 A2989 RMK A01 T01810154  RH  084%=      5-min Rain = 0
KMC1 241211Z 20004KT 18/15 A2989 RMK A01 T01810154  RH  084%=      5-min Rain = 0
KMC1 241212Z 20006KT 18/15 A2989 RMK A01 T01810154  RH  084%=      5-min Rain = 0
KMC1 241213Z 20007KT 18/15 A2989 RMK A01 T01820154  RH  084%=      5-min Rain = 0
KMC1 241214Z 20006KT 18/16 A2989 RMK A01 T01820155  RH  084%=      5-min Rain = 0
KMC1 241215Z 20007KT 18/16 A2989 RMK A01 T01830155  RH  084%=      5-min Rain = 0
KMC1 241216Z 19006KT 18/16 A2989 RMK A01 T01830155  RH  084%=      5-min Rain = 0
KMC1 241217Z 20006KT 18/16 A2989 RMK A01 T01830155  RH  084%=      5-min Rain = 0
KMC1 241218Z 20007KT 18/16 A2989 RMK A01 T01840155  RH  083%=      5-min Rain = 0
KMC1 241219Z 20005KT 18/16 A2989 RMK A01 T01840156  RH  083%=      5-min Rain = 0
KMC1 241220Z 19006KT 19/16 A2989 RMK A01 T01850156  RH  083%=      5-min Rain = 0
KMC1 241221Z 20007KT 19/16 A2989 RMK A01 T01850156  RH  083%=      5-min Rain = 0
KMC1 241222Z 20007KT 19/16 A2989 RMK A01 T01860156  RH  083%=      5-min Rain = 0
KMC1 241223Z 20007KT 19/16 A2989 RMK A01 T01860156  RH  083%=      5-min Rain = 0
KMC1 241224Z 19004KT 19/16 A2989 RMK A01 T01870156  RH  082%=      5-min Rain = 0
KMC1 241225Z 18006KT 19/16 A2989 RMK A01 T01880157  RH  082%=      5-min Rain = 0
KMC1 241226Z 18006KT 19/16 A2989 RMK A01 T01880157  RH  082%=      5-min Rain = 0
KMC1 241227Z 19006KT 19/16 A2989 RMK A01 T01880157  RH  082%=      5-min Rain = 0
KMC1 241228Z 19006KT 19/16 A2989 RMK A01 T01890158  RH  082%=      5-min Rain = 0
KMC1 241229Z 18006KT 19/16 A2989 RMK A01 T01900158  RH  082%=      5-min Rain = 0
KMC1 241230Z 18006KT 19/16 A2989 RMK A01 T01900158  RH  082%=      5-min Rain = 0
KMC1 241231Z 18008KT 19/16 A2989 RMK A01 T01910159  RH  082%=      5-min Rain = 0
KMC1 241232Z 17007KT 19/16 A2989 RMK A01 T01920160  RH  082%=      5-min Rain = 0
KMC1 241233Z 18007KT 19/16 A2989 RMK A01 T01930160  RH  081%=      5-min Rain = 0
KMC1 241234Z 17009KT 19/16 A2989 RMK A01 T01940161  RH  081%=      5-min Rain = 0
KMC1 241235Z 17009KT 19/16 A2989 RMK A01 T01940161  RH  081%=      5-min Rain = 0
KMC1 241236Z 17009KT 20/16 A2989 RMK A01 T01960162  RH  081%=      5-min Rain = 0
KMC1 241237Z 18008KT 20/16 A2989 RMK A01 T01960162  RH  081%=      5-min Rain = 0
KMC1 241238Z 18009KT 20/16 A2989 RMK A01 T01970162  RH  080%=      5-min Rain = 0
KMC1 241239Z 18009KT 20/16 A2989 RMK A01 T01970162  RH  080%=      5-min Rain = 0
KMC1 241240Z 17008KT 20/16 A2989 RMK A01 T01980163  RH  080%=      5-min Rain = 0
KMC1 241241Z 17007G13KT 20/16 A2989 RMK A01 T01990163  RH  080%=      5-min Rain = 0
KMC1 241242Z 17012KT 20/16 A2989 RMK A01 T01990164  RH  080%=      5-min Rain = 0
KMC1 241243Z 17009KT 20/16 A2989 RMK A01 T01990164  RH  080%=      5-min Rain = 0
KMC1 241244Z 16009KT 20/17 A2989 RMK A01 T02000165  RH  080%=      5-min Rain = 0
KMC1 241245Z 17012G17KT 20/17 A2989 RMK A01 T02010166  RH  080%=      5-min Rain = 0
KMC1 241246Z 17008G13KT 20/17 A2989 RMK A01 T02020166  RH  080%=      5-min Rain = 0
KMC1 241247Z 16009KT 20/17 A2989 RMK A01 T02020167  RH  080%=      5-min Rain = 0
KMC1 241248Z 17012G17KT 20/17 A2989 RMK A01 T02030168  RH  080%=      5-min Rain = 0
KMC1 241249Z 17011G17KT 20/17 A2989 RMK A01 T02040169  RH  080%=      5-min Rain = 0
KMC1 241250Z 16009KT 21/17 A2989 RMK A01 T02050170  RH  080%=      5-min Rain = 0
KMC1 241251Z 16009KT 21/17 A2989 RMK A01 T02050170  RH  080%=      5-min Rain = 0
KMC1 241252Z 17009KT 21/17 A2989 RMK A01 T02060171  RH  080%=      5-min Rain = 0
KMC1 241253Z 17005KT 21/17 A2989 RMK A01 T02070171  RH  080%=      5-min Rain = 0
KMC1 241254Z 16007G12KT 21/17 A299 RMK A01 T02070171  RH  080%=      5-min Rain = 0
KMC1 241255Z 15005KT 21/17 A299 RMK A01 T02080172  RH  080%=      5-min Rain = 0
KMC1 241256Z 16006KT 21/17 A299 RMK A01 T02080172  RH  080%=      5-min Rain = 0
KMC1 241257Z 16010KT 21/17 A299 RMK A01 T02090173  RH  080%=      5-min Rain = 0
KMC1 241258Z 16007KT 21/17 A299 RMK A01 T02090173  RH  079%=      5-min Rain = 0
KMC1 241259Z 14005KT 21/17 A299 RMK A01 T02100173  RH  080%=      5-min Rain = 0
KMC1 241300Z 15005KT 21/17 A299 RMK A01 T02110174  RH  080%=      5-min Rain = 0
KMC1 241301Z 15006KT 21/17 A299 RMK A01 T02110174  RH  079%=      5-min Rain = 0
KMC1 241302Z 14007KT 21/17 A299 RMK A01 T02120174  RH  079%=      5-min Rain = 0
KMC1 241303Z 16008KT 21/17 A299 RMK A01 T02130174  RH  079%=      5-min Rain = 0
KMC1 241304Z 14005KT 21/17 A299 RMK A01 T02130174  RH  078%=      5-min Rain = 0
KMC1 241305Z 16007KT 21/17 A299 RMK A01 T02130174  RH  078%=      5-min Rain = 0
KMC1 241306Z 17006KT 21/17 A299 RMK A01 T02140174  RH  078%=      5-min Rain = 0
KMC1 241307Z 16005KT 21/18 A299 RMK A01 T02140175  RH  078%=      5-min Rain = 0
KMC1 241308Z 17007KT 21/18 A299 RMK A01 T02140176  RH  079%=      5-min Rain = 0
KMC1 241309Z 16007KT 22/18 A299 RMK A01 T02150177  RH  079%=      5-min Rain = 0
KMC1 241310Z 16012KT 22/18 A299 RMK A01 T02160177  RH  078%=      5-min Rain = 0
KMC1 241311Z 17009KT 22/18 A299 RMK A01 T02160177  RH  079%=      5-min Rain = 0
KMC1 241312Z 16009KT 22/18 A299 RMK A01 T02160177  RH  079%=      5-min Rain = 0
KMC1 241313Z 16007KT 22/18 A299 RMK A01 T02160178  RH  079%=      5-min Rain = 0
KMC1 241314Z 17006KT 22/18 A299 RMK A01 T02160177  RH  079%=      5-min Rain = 0
KMC1 241315Z 16009G14KT 22/18 A299 RMK A01 T02170178  RH  079%=      5-min Rain = 0
KMC1 241316Z 17010KT 22/18 A299 RMK A01 T02170178  RH  078%=      5-min Rain = 0
KMC1 241317Z 16009G14KT 22/18 A299 RMK A01 T02180179  RH  078%=      5-min Rain = 0
KMC1 241318Z 16010KT 22/18 A299 RMK A01 T02180179  RH  078%=      5-min Rain = 0
KMC1 241319Z 17007KT 22/18 A299 RMK A01 T02180179  RH  078%=      5-min Rain = 0
KMC1 241320Z 17010KT 22/18 A2991 RMK A01 T02180179  RH  079%=      5-min Rain = 0
KMC1 241321Z 16010KT 22/18 A2991 RMK A01 T02180179  RH  079%=      5-min Rain = 0
KMC1 241322Z 17010KT 22/18 A2991 RMK A01 T02190180  RH  079%=      5-min Rain = 0
KMC1 241323Z 17010G15KT 22/18 A2991 RMK A01 T02190180  RH  079%=      5-min Rain = 0
KMC1 241324Z 16008G13KT 22/18 A2991 RMK A01 T02190181  RH  079%=      5-min Rain = 0
KMC1 241325Z 16008KT 22/18 A2991 RMK A01 T02200181  RH  078%=      5-min Rain = 0
KMC1 241326Z 15009KT 22/18 A2991 RMK A01 T02210181  RH  078%=      5-min Rain = 0
KMC1 241327Z 17008KT 22/18 A2991 RMK A01 T02220182  RH  078%=      5-min Rain = 0
KMC1 241328Z 17006KT 22/18 A2991 RMK A01 T02220182  RH  078%=      5-min Rain = 0
KMC1 241329Z 17005KT 22/18 A2991 RMK A01 T02230183  RH  078%=      5-min Rain = 0
KMC1 241330Z 17008G13KT 22/18 A2991 RMK A01 T02230183  RH  078%=      5-min Rain = 0
KMC1 241331Z 17012KT 22/18 A2991 RMK A01 T02230183  RH  078%=      5-min Rain = 0
KMC1 241332Z 17008G13KT 22/18 A2991 RMK A01 T02230182  RH  078%=      5-min Rain = 0
KMC1 241333Z 16007KT 22/18 A2991 RMK A01 T02230183  RH  078%=      5-min Rain = 0
KMC1 241334Z 17006KT 22/18 A2991 RMK A01 T02240183  RH  078%=      5-min Rain = 0
KMC1 241335Z 17006KT 23/18 A2991 RMK A01 T02250183  RH  077%=      5-min Rain = 0
KMC1 241336Z 16008KT 23/18 A2991 RMK A01 T02250183  RH  077%=      5-min Rain = 0
KMC1 241337Z 15011KT 23/18 A2991 RMK A01 T02260183  RH  077%=      5-min Rain = 0
KMC1 241338Z 16009KT 23/18 A2991 RMK A01 T02260183  RH  077%=      5-min Rain = 0
KMC1 241339Z 14006KT 23/18 A2991 RMK A01 T02260184  RH  077%=      5-min Rain = 0
KMC1 241340Z 15010KT 23/19 A2991 RMK A01 T02270185  RH  077%=      5-min Rain = 0
KMC1 241341Z 16011KT 23/18 A2991 RMK A01 T02280184  RH  076%=      5-min Rain = 0
KMC1 241342Z 16009KT 23/18 A2991 RMK A01 T02280184  RH  076%=      5-min Rain = 0
KMC1 241343Z 16005G10KT 23/19 A2991 RMK A01 T02280186  RH  077%=      5-min Rain = 0
KMC1 241344Z 17013KT 23/19 A2991 RMK A01 T02290185  RH  076%=      5-min Rain = 0
KMC1 241345Z 15009KT 23/19 A2991 RMK A01 T02290185  RH  076%=      5-min Rain = 0
KMC1 241346Z 16011KT 23/19 A2991 RMK A01 T02280185  RH  077%=      5-min Rain = 0
KMC1 241347Z 16011KT 23/19 A2991 RMK A01 T02280185  RH  077%=      5-min Rain = 0
KMC1 241348Z 16010KT 23/19 A2992 RMK A01 T02270185  RH  077%=      5-min Rain = 0
KMC1 241349Z 18012G18KT 23/19 A2992 RMK A01 T02270185  RH  077%=      5-min Rain = 0
KMC1 241350Z 17009KT 23/19 A2991 RMK A01 T02280185  RH  077%=      5-min Rain = 0
KMC1 241351Z 17009KT 23/19 A2992 RMK A01 T02280186  RH  077%=      5-min Rain = 0
KMC1 241352Z 18006KT 23/19 A2992 RMK A01 T02280185  RH  077%=      5-min Rain = 0
KMC1 241353Z 17006KT 23/19 A2992 RMK A01 T02280186  RH  077%=      5-min Rain = 0
KMC1 241354Z 15004KT 23/19 A2992 RMK A01 T02280185  RH  077%=      5-min Rain = 0
KMC1 241355Z 17008KT 23/19 A2992 RMK A01 T02290187  RH  077%=      5-min Rain = 0
KMC1 241356Z 16007KT 23/19 A2992 RMK A01 T02300186  RH  076%=      5-min Rain = 0
KMC1 241357Z 16008KT 23/19 A2992 RMK A01 T02300186  RH  076%=      5-min Rain = 0
KMC1 241358Z 17008KT 23/19 A2992 RMK A01 T02310186  RH  076%=      5-min Rain = 0
KMC1 241359Z 16009KT 23/19 A2992 RMK A01 T02310186  RH  076%=      5-min Rain = 0
KMC1 241400Z 15008KT 23/19 A2992 RMK A01 T02300185  RH  076%=      5-min Rain = 0
KMC1 241401Z 15009G14KT 23/19 A2992 RMK A01 T02300186  RH  076%=      5-min Rain = 0
KMC1 241402Z 17012KT 23/19 A2992 RMK A01 T02300185  RH  076%=      5-min Rain = 0
KMC1 241403Z 17009KT 23/19 A2992 RMK A01 T02300185  RH  076%=      5-min Rain = 0
KMC1 241404Z 18009KT 23/19 A2992 RMK A01 T02290186  RH  076%=      5-min Rain = 0
KMC1 241405Z 16006KT 23/19 A2992 RMK A01 T02290186  RH  077%=      5-min Rain = 0
KMC1 241406Z 18007KT 23/19 A2992 RMK A01 T02300187  RH  076%=      5-min Rain = 0
KMC1 241407Z 17010KT 23/19 A2992 RMK A01 T02320186  RH  075%=      5-min Rain = 0
KMC1 241408Z 17009KT 23/19 A2992 RMK A01 T02320186  RH  075%=      5-min Rain = 0
KMC1 241409Z 18010KT 23/19 A2992 RMK A01 T02320185  RH  075%=      5-min Rain = 0
KMC1 241410Z 16008G14KT 23/19 A2992 RMK A01 T02310186  RH  076%=      5-min Rain = 0
KMC1 241411Z 17013KT 23/19 A2992 RMK A01 T02310186  RH  075%=      5-min Rain = 0
KMC1 241412Z 17010KT 23/19 A2992 RMK A01 T02310185  RH  075%=      5-min Rain = 0
KMC1 241413Z 17010KT 23/19 A2992 RMK A01 T02310186  RH  075%=      5-min Rain = 0
KMC1 241414Z 17010KT 23/19 A2992 RMK A01 T02310186  RH  076%=      5-min Rain = 0
KMC1 241415Z 16006KT 23/19 A2992 RMK A01 T02310186  RH  076%=      5-min Rain = 0
KMC1 241416Z 18007KT 23/19 A2992 RMK A01 T02330187  RH  076%=      5-min Rain = 0
KMC1 241417Z 17009G14KT 23/19 A2992 RMK A01 T02340187  RH  075%=      5-min Rain = 0
KMC1 241418Z 17006KT 24/19 A2992 RMK A01 T02350188  RH  075%=      5-min Rain = 0
KMC1 241419Z 16009G14KT 24/19 A2992 RMK A01 T02370189  RH  074%=      5-min Rain = 0
KMC1 241420Z 16009KT 24/19 A2992 RMK A01 T02380188  RH  073%=      5-min Rain = 0
KMC1 241421Z 16010G15KT 24/19 A2992 RMK A01 T02370187  RH  074%=      5-min Rain = 0
KMC1 241422Z 17010G15KT 24/19 A2992 RMK A01 T02360187  RH  074%=      5-min Rain = 0
KMC1 241423Z 16010G16KT 24/19 A2992 RMK A01 T02350186  RH  074%=      5-min Rain = 0
KMC1 241424Z 16010KT 23/19 A2992 RMK A01 T02340187  RH  075%=      5-min Rain = 0
KMC1 241425Z 15010KT 24/19 A2992 RMK A01 T02350188  RH  075%=      5-min Rain = 0
KMC1 241426Z 17007KT 24/19 A2992 RMK A01 T02350187  RH  074%=      5-min Rain = 0
KMC1 241427Z 16008KT 24/19 A2992 RMK A01 T02360188  RH  074%=      5-min Rain = 0
KMC1 241428Z 13008G13KT 24/19 A2992 RMK A01 T02380188  RH  074%=      5-min Rain = 0
KMC1 241429Z 15009KT 24/19 A2992 RMK A01 T02390189  RH  073%=      5-min Rain = 0
KMC1 241430Z 15007KT 24/19 A2992 RMK A01 T02410189  RH  073%=      5-min Rain = 0
KMC1 241431Z 15009KT 24/19 A2992 RMK A01 T02420189  RH  072%=      5-min Rain = 0
KMC1 241432Z 16010KT 24/19 A2992 RMK A01 T02430189  RH  072%=      5-min Rain = 0
KMC1 241433Z 17009KT 24/19 A2992 RMK A01 T02430189  RH  072%=      5-min Rain = 0
KMC1 241434Z 16006KT 24/19 A2992 RMK A01 T02440191  RH  072%=      5-min Rain = 0
KMC1 241435Z 15009KT 25/19 A2992 RMK A01 T02460191  RH  071%=      5-min Rain = 0
KMC1 241436Z 14007G12KT 25/19 A2991 RMK A01 T02470190  RH  071%=      5-min Rain = 0
KMC1 241437Z 14008KT 25/19 A2991 RMK A01 T02480190  RH  070%=      5-min Rain = 0
KMC1 241438Z 14009KT 25/19 A2991 RMK A01 T02500192  RH  070%=      5-min Rain = 0
KMC1 241439Z 15008KT 25/19 A2991 RMK A01 T02520193  RH  070%=      5-min Rain = 0
KMC1 241440Z 15006KT 26/19 A2991 RMK A01 T02550194  RH  069%=      5-min Rain = 0
KMC1 241441Z 14008KT 26/19 A2991 RMK A01 T02560192  RH  068%=      5-min Rain = 0
KMC1 241442Z 15009KT 26/19 A2991 RMK A01 T02550191  RH  068%=      5-min Rain = 0
KMC1 241443Z 17011KT 25/19 A2991 RMK A01 T02530189  RH  067%=      5-min Rain = 0
KMC1 241444Z 16007KT 25/19 A2991 RMK A01 T02510190  RH  069%=      5-min Rain = 0
KMC1 241445Z 17008KT 25/19 A2991 RMK A01 T02510190  RH  069%=      5-min Rain = 0
KMC1 241446Z 16007KT 25/19 A2991 RMK A01 T02500191  RH  070%=      5-min Rain = 0
KMC1 241447Z 17007KT 25/19 A2991 RMK A01 T02520192  RH  069%=      5-min Rain = 0
KMC1 241448Z 15008KT 26/19 A2991 RMK A01 T02550192  RH  068%=      5-min Rain = 0
KMC1 241449Z 15006KT 26/19 A2991 RMK A01 T02570191  RH  067%=      5-min Rain = 0
KMC1 241450Z 16007KT 26/19 A2991 RMK A01 T02570192  RH  067%=      5-min Rain = 0
KMC1 241451Z 16008KT 26/19 A2991 RMK A01 T02560191  RH  067%=      5-min Rain = 0
KMC1 241452Z 18006KT 26/19 A2991 RMK A01 T02560191  RH  067%=      5-min Rain = 0
KMC1 241453Z 19008KT 26/19 A2991 RMK A01 T02550191  RH  068%=      5-min Rain = 0
KMC1 241454Z 18007KT 26/19 A2991 RMK A01 T02550190  RH  067%=      5-min Rain = 0
KMC1 241455Z 15005KT 26/19 A2991 RMK A01 T02570193  RH  068%=      5-min Rain = 0
KMC1 241456Z 16009KT 26/19 A2991 RMK A01 T02600192  RH  066%=      5-min Rain = 0
KMC1 241457Z 15008KT 26/19 A2991 RMK A01 T02610193  RH  066%=      5-min Rain = 0
KMC1 241458Z 15007KT 26/19 A2991 RMK A01 T02620193  RH  066%=      5-min Rain = 0
KMC1 241459Z 17009KT 26/19 A2991 RMK A01 T02630192  RH  065%=      5-min Rain = 0
KMC1 241500Z 17007KT 26/19 A2991 RMK A01 T02630194  RH  065%=      5-min Rain = 0
KMC1 241501Z 16007KT 26/19 A2991 RMK A01 T02640193  RH  065%=      5-min Rain = 0
KMC1 241502Z 15011KT 27/19 A2991 RMK A01 T02650190  RH  064%=      5-min Rain = 0
KMC1 241503Z 16011G17KT 26/19 A2991 RMK A01 T02630189  RH  064%=      5-min Rain = 0
KMC1 241504Z 18010KT 26/19 A2991 RMK A01 T02610189  RH  065%=      5-min Rain = 0
KMC1 241505Z 17008KT 26/19 A2991 RMK A01 T02590190  RH  066%=      5-min Rain = 0
KMC1 241506Z 16010KT 26/19 A2991 RMK A01 T02590189  RH  065%=      5-min Rain = 0
KMC1 241507Z 17008G14KT 26/19 A2991 RMK A01 T02590191  RH  066%=      5-min Rain = 0
KMC1 241508Z 18012G19KT 26/19 A2991 RMK A01 T02600189  RH  065%=      5-min Rain = 0
KMC1 241509Z 18013G18KT 26/19 A2991 RMK A01 T02600187  RH  064%=      5-min Rain = 0
KMC1 241510Z 18010G15KT 26/19 A2991 RMK A01 T02590188  RH  065%=      5-min Rain = 0
KMC1 241511Z 17010G16KT 26/19 A2991 RMK A01 T02580188  RH  065%=      5-min Rain = 0
KMC1 241512Z 16014G21KT 26/19 A2991 RMK A01 T02580187  RH  065%=      5-min Rain = 0
KMC1 241513Z 16013G20KT 26/19 A2991 RMK A01 T02570186  RH  065%=      5-min Rain = 0
KMC1 241514Z 17014KT 26/19 A2991 RMK A01 T02560185  RH  065%=      5-min Rain = 0
KMC1 241515Z 17015KT 25/18 A2991 RMK A01 T02540184  RH  065%=      5-min Rain = 0
KMC1 241516Z 17012G19KT 25/18 A2991 RMK A01 T02530184  RH  065%=      5-min Rain = 0
KMC1 241517Z 18011G17KT 25/18 A2991 RMK A01 T02520184  RH  066%=      5-min Rain = 0
KMC1 241518Z 17013G18KT 25/19 A2991 RMK A01 T02530185  RH  066%=      5-min Rain = 0
KMC1 241519Z 16012G17KT 25/18 A2991 RMK A01 T02540184  RH  065%=      5-min Rain = 0
KMC1 241520Z 16011G19KT 26/19 A2991 RMK A01 T02550185  RH  065%=      5-min Rain = 0
KMC1 241521Z 17010G16KT 25/18 A2991 RMK A01 T02540184  RH  065%=      5-min Rain = 0
KMC1 241522Z 17013G18KT 25/19 A2991 RMK A01 T02540185  RH  065%=      5-min Rain = 0
KMC1 241523Z 17013KT 26/19 A2991 RMK A01 T02550185  RH  065%=      5-min Rain = 0
KMC1 241524Z 16012KT 26/19 A2991 RMK A01 T02560185  RH  065%=      5-min Rain = 0
KMC1 241525Z 16009KT 26/19 A2991 RMK A01 T02580186  RH  064%=      5-min Rain = 0
KMC1 241526Z 17013G19KT 26/19 A2991 RMK A01 T02600186  RH  064%=      5-min Rain = 0
KMC1 241527Z 15012G17KT 26/19 A2991 RMK A01 T02610185  RH  063%=      5-min Rain = 0
KMC1 241528Z 17010G17KT 26/19 A2991 RMK A01 T02620186  RH  063%=      5-min Rain = 0
KMC1 241529Z 15012G19KT 26/19 A2991 RMK A01 T02630185  RH  062%=      5-min Rain = 0
KMC1 241530Z 17012G17KT 26/19 A2991 RMK A01 T02620185  RH  063%=      5-min Rain = 0
KMC1 241531Z 17014G21KT 26/19 A2991 RMK A01 T02600185  RH  063%=      5-min Rain = 0
KMC1 241532Z 17012G18KT 26/18 A2991 RMK A01 T02610184  RH  063%=      5-min Rain = 0
KMC1 241533Z 16014KT 26/19 A2991 RMK A01 T02610185  RH  063%=      5-min Rain = 0
KMC1 241534Z 17012G17KT 26/19 A2991 RMK A01 T02610186  RH  063%=      5-min Rain = 0
KMC1 241535Z 17012G19KT 26/19 A2991 RMK A01 T02610185  RH  063%=      5-min Rain = 0
KMC1 241536Z 15008KT 26/19 A2991 RMK A01 T02610186  RH  063%=      5-min Rain = 0
KMC1 241537Z 14007G13KT 26/19 A2991 RMK A01 T02630189  RH  064%=      5-min Rain = 0
KMC1 241538Z 14012G17KT 26/19 A2991 RMK A01 T02640187  RH  063%=      5-min Rain = 0
KMC1 241539Z 14013KT 26/19 A2991 RMK A01 T02640187  RH  063%=      5-min Rain = 0
KMC1 241540Z 16014KT 27/19 A2991 RMK A01 T02650188  RH  063%=      5-min Rain = 0
KMC1 241541Z 16013G18KT 27/19 A2991 RMK A01 T02660187  RH  062%=      5-min Rain = 0
KMC1 241542Z 17012G18KT 27/19 A2991 RMK A01 T02670188  RH  062%=      5-min Rain = 0
KMC1 241543Z 15010G16KT 27/19 A2991 RMK A01 T02700189  RH  061%=      5-min Rain = 0
KMC1 241544Z 15010G16KT 27/19 A2991 RMK A01 T02720190  RH  061%=      5-min Rain = 0
KMC1 241545Z 15012KT 27/19 A2991 RMK A01 T02740188  RH  059%=      5-min Rain = 0
KMC1 241546Z 17012KT 28/19 A2991 RMK A01 T02750186  RH  058%=      5-min Rain = 0
KMC1 241547Z 15009KT 28/19 A2991 RMK A01 T02750186  RH  058%=      5-min Rain = 0
KMC1 241548Z 14011G18KT 28/19 A2991 RMK A01 T02750188  RH  059%=      5-min Rain = 0
KMC1 241549Z 14011G16KT 28/19 A299 RMK A01 T02760188  RH  059%=      5-min Rain = 0
KMC1 241550Z 15011G18KT 28/19 A299 RMK A01 T02750187  RH  059%=      5-min Rain = 0
KMC1 241551Z 15007KT 27/19 A299 RMK A01 T02740189  RH  060%=      5-min Rain = 0
KMC1 241552Z 16009G16KT 28/19 A299 RMK A01 T02760191  RH  060%=      5-min Rain = 0
KMC1 241553Z 18012KT 28/19 A299 RMK A01 T02790187  RH  057%=      5-min Rain = 0
KMC1 241554Z 17013G18KT 28/19 A299 RMK A01 T02760186  RH  058%=      5-min Rain = 0
KMC1 241555Z 18012KT 27/19 A299 RMK A01 T02710185  RH  059%=      5-min Rain = 0
KMC1 241556Z 17014KT 27/18 A299 RMK A01 T02670184  RH  060%=      5-min Rain = 0
KMC1 241557Z 16011KT 27/18 A299 RMK A01 T02660183  RH  060%=      5-min Rain = 0
KMC1 241558Z 16011KT 27/18 A299 RMK A01 T02660184  RH  061%=      5-min Rain = 0
KMC1 241559Z 15011G16KT 27/18 A299 RMK A01 T02650183  RH  060%=      5-min Rain = 0
KMC1 241600Z 16011G16KT 26/18 A299 RMK A01 T02630182  RH  061%=      5-min Rain = 0
KMC1 241601Z 19010KT 26/18 A299 RMK A01 T02620184  RH  062%=      5-min Rain = 0
KMC1 241602Z 18012KT 26/18 A299 RMK A01 T02620183  RH  062%=      5-min Rain = 0
KMC1 241603Z 18011G16KT 26/18 A299 RMK A01 T02630183  RH  062%=      5-min Rain = 0
KMC1 241604Z 17010G16KT 27/19 A299 RMK A01 T02660185  RH  061%=      5-min Rain = 0
KMC1 241605Z 14014G20KT 27/18 A299 RMK A01 T02720183  RH  058%=      5-min Rain = 0
KMC1 241606Z 15012G17KT 28/18 A299 RMK A01 T02750182  RH  057%=      5-min Rain = 0
KMC1 241607Z 15010G16KT 28/18 A299 RMK A01 T02750184  RH  058%=      5-min Rain = 0
KMC1 241608Z 17015G21KT 28/19 A299 RMK A01 T02760185  RH  058%=      5-min Rain = 0
KMC1 241609Z 15015KT 28/18 A299 RMK A01 T02770184  RH  057%=      5-min Rain = 0
KMC1 241610Z 15013KT 28/18 A299 RMK A01 T02760184  RH  057%=      5-min Rain = 0
KMC1 241611Z 15013G19KT 28/18 A299 RMK A01 T02750183  RH  057%=      5-min Rain = 0
KMC1 241612Z 15009KT 27/18 A299 RMK A01 T02740184  RH  058%=      5-min Rain = 0
KMC1 241613Z 15009G14KT 27/18 A299 RMK A01 T02740184  RH  058%=      5-min Rain = 0
KMC1 241614Z 16013G18KT 27/18 A299 RMK A01 T02740183  RH  057%=      5-min Rain = 0
KMC1 241615Z 17012G19KT 28/18 A299 RMK A01 T02750181  RH  057%=      5-min Rain = 0
KMC1 241616Z 16013G21KT 27/18 A299 RMK A01 T02740183  RH  057%=      5-min Rain = 0
KMC1 241617Z 16013G18KT 27/18 A299 RMK A01 T02730182  RH  057%=      5-min Rain = 0
KMC1 241618Z 16008G13KT 27/18 A299 RMK A01 T02700184  RH  059%=      5-min Rain = 0
KMC1 241619Z 16007KT 27/19 A299 RMK A01 T02720186  RH  059%=      5-min Rain = 0
KMC1 241620Z 16007G12KT 28/19 A299 RMK A01 T02750186  RH  058%=      5-min Rain = 0
KMC1 241621Z 17012KT 28/19 A299 RMK A01 T02750185  RH  058%=      5-min Rain = 0
KMC1 241622Z 17012KT 27/18 A299 RMK A01 T02710183  RH  059%=      5-min Rain = 0
KMC1 241623Z 16011KT 27/18 A299 RMK A01 T02670183  RH  060%=      5-min Rain = 0
KMC1 241624Z 17010KT 27/18 A299 RMK A01 T02650184  RH  061%=      5-min Rain = 0
KMC1 241625Z 18011KT 27/18 A299 RMK A01 T02650183  RH  060%=      5-min Rain = 0
KMC1 241626Z 17010KT 27/18 A299 RMK A01 T02660181  RH  060%=      5-min Rain = 0
KMC1 241627Z 17011G16KT 27/18 A299 RMK A01 T02650182  RH  060%=      5-min Rain = 0
KMC1 241628Z 17009KT 27/18 A299 RMK A01 T02670183  RH  060%=      5-min Rain = 0
KMC1 241629Z 18008KT 27/18 A299 RMK A01 T02680183  RH  060%=      5-min Rain = 0
KMC1 241630Z 17011G16KT 27/18 A299 RMK A01 T02700182  RH  059%=      5-min Rain = 0
KMC1 241631Z 17011KT 27/18 A299 RMK A01 T02700181  RH  058%=      5-min Rain = 0
KMC1 241632Z 18010KT 27/18 A299 RMK A01 T02700181  RH  058%=      5-min Rain = 0
KMC1 241633Z 18012KT 27/18 A299 RMK A01 T02700181  RH  058%=      5-min Rain = 0
KMC1 241634Z 18009KT 27/18 A2989 RMK A01 T02700181  RH  058%=      5-min Rain = 0
KMC1 241635Z 18014G21KT 27/18 A2989 RMK A01 T02720183  RH  058%=      5-min Rain = 0
KMC1 241636Z 14014KT 28/18 A2989 RMK A01 T02770182  RH  057%=      5-min Rain = 0
KMC1 241637Z 16014G19KT 28/18 A2989 RMK A01 T02780180  RH  055%=      5-min Rain = 0
KMC1 241638Z 17015G20KT 28/18 A2989 RMK A01 T02780180  RH  055%=      5-min Rain = 0
KMC1 241639Z 16011G16KT 28/18 A2989 RMK A01 T02770181  RH  056%=      5-min Rain = 0
KMC1 241640Z 17008KT 28/19 A2989 RMK A01 T02790185  RH  056%=      5-min Rain = 0
KMC1 241641Z 17011KT 28/19 A2989 RMK A01 T02830186  RH  055%=      5-min Rain = 0
KMC1 241642Z 16008KT 29/19 A2989 RMK A01 T02860185  RH  054%=      5-min Rain = 0
KMC1 241643Z 15010KT 29/19 A2989 RMK A01 T02860186  RH  054%=      5-min Rain = 0
KMC1 241644Z 15012G18KT 29/19 A2989 RMK A01 T02880185  RH  054%=      5-min Rain = 0
KMC1 241645Z 14013KT 29/19 A2989 RMK A01 T02890185  RH  053%=      5-min Rain = 0
KMC1 241646Z 14015G20KT 29/19 A2989 RMK A01 T02880185  RH  054%=      5-min Rain = 0
KMC1 241647Z 14011KT 29/18 A2989 RMK A01 T02860183  RH  054%=      5-min Rain = 0
KMC1 241648Z 14013KT 29/18 A2989 RMK A01 T02850183  RH  054%=      5-min Rain = 0
KMC1 241649Z 16014G21KT 29/18 A2989 RMK A01 T02850183  RH  054%=      5-min Rain = 0
KMC1 241650Z 15012G21KT 29/18 A2989 RMK A01 T02860182  RH  053%=      5-min Rain = 0
KMC1 241651Z 15011KT 29/18 A2989 RMK A01 T02870183  RH  054%=      5-min Rain = 0
KMC1 241652Z 16010G17KT 29/19 A2989 RMK A01 T02880186  RH  054%=      5-min Rain = 0
KMC1 241653Z 15012G21KT 29/19 A2989 RMK A01 T02890185  RH  054%=      5-min Rain = 0
KMC1 241654Z 17009G17KT 29/18 A2989 RMK A01 T02880184  RH  053%=      5-min Rain = 0
KMC1 241655Z 16009KT 29/18 A2989 RMK A01 T02890183  RH  053%=      5-min Rain = 0
KMC1 241656Z 15009KT 29/19 A2989 RMK A01 T02920185  RH  052%=      5-min Rain = 0
KMC1 241657Z 15013KT 30/18 A2989 RMK A01 T02950184  RH  051%=      5-min Rain = 0
KMC1 241658Z 16013G18KT 29/18 A2989 RMK A01 T02930184  RH  052%=      5-min Rain = 0
KMC1 241659Z 14012G18KT 29/19 A2989 RMK A01 T02890185  RH  053%=      5-min Rain = 0
KMC1 241700Z 15011KT 29/19 A2989 RMK A01 T02890185  RH  053%=      5-min Rain = 0
KMC1 241701Z 17012KT 29/18 A2989 RMK A01 T02900183  RH  052%=      5-min Rain = 0
KMC1 241702Z 16010KT 29/18 A2989 RMK A01 T02910181  RH  052%=      5-min Rain = 0
KMC1 241703Z 15015G21KT 29/18 A2989 RMK A01 T02910181  RH  051%=      5-min Rain = 0
KMC1 241704Z 15014G21KT 29/18 A2989 RMK A01 T02920181  RH  051%=      5-min Rain = 0
KMC1 241705Z 16012G17KT 29/18 A2989 RMK A01 T02900180  RH  052%=      5-min Rain = 0
KMC1 241706Z 15013KT 29/18 A2989 RMK A01 T02870179  RH  052%=      5-min Rain = 0
KMC1 241707Z 14015G21KT 29/18 A2989 RMK A01 T02850179  RH  052%=      5-min Rain = 0
KMC1 241708Z 13014G21KT 29/18 A2989 RMK A01 T02870177  RH  051%=      5-min Rain = 0
KMC1 241709Z 15009KT 29/18 A2989 RMK A01 T02900180  RH  052%=      5-min Rain = 0
KMC1 241710Z 16014G19KT 29/18 A2989 RMK A01 T02940181  RH  051%=      5-min Rain = 0
KMC1 241711Z 15015G20KT 30/18 A2989 RMK A01 T02950181  RH  050%=      5-min Rain = 0
KMC1 241712Z 16012G18KT 29/18 A2989 RMK A01 T02930180  RH  050%=      5-min Rain = 0
KMC1 241713Z 16011G16KT 29/18 A2989 RMK A01 T02910182  RH  052%=      5-min Rain = 0
KMC1 241714Z 17011G16KT 29/18 A2989 RMK A01 T02920182  RH  051%=      5-min Rain = 0
KMC1 241715Z 14014G19KT 29/18 A2989 RMK A01 T02910182  RH  052%=      5-min Rain = 0
KMC1 241716Z 15016KT 29/18 A2989 RMK A01 T02910181  RH  051%=      5-min Rain = 0
KMC1 241717Z 15013G18KT 29/18 A2989 RMK A01 T02910180  RH  051%=      5-min Rain = 0
KMC1 241718Z 16013KT 29/18 A2989 RMK A01 T02940179  RH  050%=      5-min Rain = 0
KMC1 241719Z 16011G16KT 29/18 A2989 RMK A01 T02930180  RH  051%=      5-min Rain = 0
KMC1 241720Z 16013G19KT 29/18 A2989 RMK A01 T02930180  RH  051%=      5-min Rain = 0
KMC1 241721Z 15010G17KT 29/18 A2989 RMK A01 T02930179  RH  050%=      5-min Rain = 0
KMC1 241722Z 15009G14KT 29/18 A2989 RMK A01 T02930181  RH  051%=      5-min Rain = 0
KMC1 241723Z 17010G17KT 30/18 A2989 RMK A01 T02950183  RH  051%=      5-min Rain = 0
KMC1 241724Z 17013KT 30/18 A2989 RMK A01 T02950179  RH  050%=      5-min Rain = 0
KMC1 241725Z 18008KT 29/18 A2989 RMK A01 T02910181  RH  051%=      5-min Rain = 0
KMC1 241726Z 17007G15KT 29/18 A2989 RMK A01 T02910182  RH  052%=      5-min Rain = 0
KMC1 241727Z 16012G20KT 29/18 A2989 RMK A01 T02930182  RH  051%=      5-min Rain = 0
KMC1 241728Z 16011G19KT 29/18 A2989 RMK A01 T02940179  RH  050%=      5-min Rain = 0
KMC1 241729Z 17017KT 30/18 A2989 RMK A01 T02960179  RH  049%=      5-min Rain = 0
KMC1 241730Z 18016G22KT 29/18 A2989 RMK A01 T02940177  RH  049%=      5-min Rain = 0
KMC1 241731Z 18016KT 29/18 A2989 RMK A01 T02910178  RH  051%=      5-min Rain = 0
KMC1 241732Z 16010G18KT 29/18 A2989 RMK A01 T02900178  RH  051%=      5-min Rain = 0
KMC1 241733Z 14013KT 29/18 A2989 RMK A01 T02930183  RH  052%=      5-min Rain = 0
KMC1 241734Z 14010KT 30/18 A2989 RMK A01 T02950183  RH  051%=      5-min Rain = 0
KMC1 241735Z 14011KT 30/18 A2989 RMK A01 T02950180  RH  050%=      5-min Rain = 0
KMC1 241736Z 15017G22KT 30/18 A2989 RMK A01 T02960179  RH  050%=      5-min Rain = 0
KMC1 241737Z 16013KT 30/18 A2989 RMK A01 T02960180  RH  050%=      5-min Rain = 0
KMC1 241738Z 17010G15KT 30/18 A2989 RMK A01 T02960181  RH  050%=      5-min Rain = 0
KMC1 241739Z 16007KT 30/18 A2989 RMK A01 T02970183  RH  051%=      5-min Rain = 0
KMC1 241740Z 14011KT 30/18 A2989 RMK A01 T02980181  RH  049%=      5-min Rain = 0
KMC1 241741Z 14009G14KT 30/18 A2988 RMK A01 T02960179  RH  050%=      5-min Rain = 0
KMC1 241742Z 16011G16KT 30/18 A2988 RMK A01 T02950181  RH  050%=      5-min Rain = 0
KMC1 241743Z 16010KT 30/18 A2988 RMK A01 T02970182  RH  050%=      5-min Rain = 0
KMC1 241744Z 15008G13KT 30/18 A2988 RMK A01 T02960182  RH  050%=      5-min Rain = 0
KMC1 241745Z 15012KT 30/18 A2988 RMK A01 T02960183  RH  051%=      5-min Rain = 0
KMC1 241746Z 14011G16KT 29/18 A2988 RMK A01 T02940183  RH  051%=      5-min Rain = 0
KMC1 241747Z 15012KT 29/18 A2988 RMK A01 T02910181  RH  052%=      5-min Rain = 0
KMC1 241748Z 17012G17KT 29/18 A2988 RMK A01 T02880180  RH  052%=      5-min Rain = 0
KMC1 241749Z 18010G16KT 29/18 A2988 RMK A01 T02850177  RH  052%=      5-min Rain = 0
KMC1 241750Z 18010KT 28/18 A2988 RMK A01 T02840179  RH  053%=      5-min Rain = 0
KMC1 241751Z 17010KT 28/18 A2988 RMK A01 T02840179  RH  053%=      5-min Rain = 0
KMC1 241752Z 15010KT 29/18 A2988 RMK A01 T02870181  RH  053%=      5-min Rain = 0
KMC1 241753Z 17010KT 29/18 A2988 RMK A01 T02900184  RH  053%=      5-min Rain = 0
KMC1 241754Z 16010KT 29/18 A2988 RMK A01 T02930184  RH  052%=      5-min Rain = 0
KMC1 241755Z 15007KT 29/19 A2988 RMK A01 T02940186  RH  052%=      5-min Rain = 0
KMC1 241756Z 15010G18KT 30/19 A2988 RMK A01 T02960185  RH  051%=      5-min Rain = 0
KMC1 241757Z 14012KT 30/18 A2987 RMK A01 T02970183  RH  050%=      5-min Rain = 0
KMC1 241758Z 14008G14KT 30/18 A2987 RMK A01 T02960184  RH  051%=      5-min Rain = 0
KMC1 241759Z 17008G13KT 30/19 A2987 RMK A01 T02970186  RH  051%=      5-min Rain = 0
KMC1 241800Z 16011G19KT 30/19 A2987 RMK A01 T02980185  RH  051%=      5-min Rain = 0
KMC1 241801Z 17015KT 30/18 A2987 RMK A01 T02980183  RH  050%=      5-min Rain = 0
KMC1 241802Z 17013G20KT 29/18 A2987 RMK A01 T02940181  RH  051%=      5-min Rain = 0
KMC1 241803Z 17010G17KT 29/18 A2987 RMK A01 T02930182  RH  051%=      5-min Rain = 0
KMC1 241804Z 16012G19KT 29/18 A2987 RMK A01 T02920180  RH  051%=      5-min Rain = 0
KMC1 241805Z 18013G18KT 29/18 A2987 RMK A01 T02940182  RH  051%=      5-min Rain = 0
KMC1 241806Z 18014G19KT 30/18 A2987 RMK A01 T02950182  RH  051%=      5-min Rain = 0
KMC1 241807Z 18013KT 29/19 A2987 RMK A01 T02930185  RH  052%=      5-min Rain = 0
KMC1 241808Z 16012KT 29/19 A2987 RMK A01 T02930186  RH  053%=      5-min Rain = 0
KMC1 241809Z 13013KT 29/19 A2987 RMK A01 T02920187  RH  053%=      5-min Rain = 0
KMC1 241810Z 15010KT 29/19 A2987 RMK A01 T02910187  RH  053%=      5-min Rain = 0
KMC1 241811Z 17009KT 29/19 A2987 RMK A01 T02900186  RH  053%=      5-min Rain = 0
KMC1 241812Z 14011G18KT 29/19 A2987 RMK A01 T02890185  RH  054%=      5-min Rain = 0
KMC1 241813Z 15006G11KT 29/19 A2987 RMK A01 T02890185  RH  053%=      5-min Rain = 0
KMC1 241814Z 18012G17KT 29/19 A2987 RMK A01 T02930185  RH  052%=      5-min Rain = 0
KMC1 241815Z 14008KT 30/18 A2987 RMK A01 T02960184  RH  051%=      5-min Rain = 0
KMC1 241816Z 15010KT 30/19 A2987 RMK A01 T02980185  RH  051%=      5-min Rain = 0
KMC1 241817Z 14009G14KT 30/19 A2987 RMK A01 T03010188  RH  051%=      5-min Rain = 0
KMC1 241818Z 16009G14KT 30/19 A2987 RMK A01 T03010187  RH  050%=      5-min Rain = 0
KMC1 241819Z 18009KT 30/18 A2986 RMK A01 T02990184  RH  050%=      5-min Rain = 0
KMC1 241820Z 17013G20KT 30/18 A2986 RMK A01 T02970183  RH  050%=      5-min Rain = 0
KMC1 241821Z 17012G18KT 30/18 A2986 RMK A01 T02960180  RH  050%=      5-min Rain = 0
KMC1 241822Z 17012KT 30/18 A2986 RMK A01 T02960180  RH  050%=      5-min Rain = 0
KMC1 241823Z 16014KT 30/18 A2987 RMK A01 T02980183  RH  050%=      5-min Rain = 0
KMC1 241824Z 16013KT 30/18 A2987 RMK A01 T03000183  RH  049%=      5-min Rain = 0
KMC1 241825Z 16013KT 30/18 A2987 RMK A01 T03000182  RH  049%=      5-min Rain = 0
KMC1 241826Z 17011G16KT 30/18 A2986 RMK A01 T02990181  RH  049%=      5-min Rain = 0
KMC1 241827Z 17014KT 30/18 A2986 RMK A01 T02970180  RH  049%=      5-min Rain = 0
KMC1 241828Z 19012G20KT 30/18 A2986 RMK A01 T02950181  RH  050%=      5-min Rain = 0
KMC1 241829Z 17008G13KT 29/18 A2986 RMK A01 T02940184  RH  052%=      5-min Rain = 0
KMC1 241830Z 14009KT 30/18 A2986 RMK A01 T02960184  RH  051%=      5-min Rain = 0
KMC1 241831Z 14009G14KT 30/18 A2986 RMK A01 T02970183  RH  050%=      5-min Rain = 0
KMC1 241832Z 14010KT 30/18 A2986 RMK A01 T02960184  RH  051%=      5-min Rain = 0
KMC1 241833Z 15008G14KT 29/18 A2986 RMK A01 T02930184  RH  052%=      5-min Rain = 0
KMC1 241834Z 16012KT 29/19 A2986 RMK A01 T02930185  RH  052%=      5-min Rain = 0
KMC1 241835Z 15011KT 29/18 A2986 RMK A01 T02930184  RH  052%=      5-min Rain = 0
KMC1 241836Z 15010KT 29/18 A2986 RMK A01 T02930183  RH  051%=      5-min Rain = 0
KMC1 241837Z 14010KT 29/18 A2986 RMK A01 T02940184  RH  052%=      5-min Rain = 0
KMC1 241838Z 13010G16KT 30/18 A2986 RMK A01 T02950184  RH  051%=      5-min Rain = 0
KMC1 241839Z 16011KT 30/18 A2986 RMK A01 T02970183  RH  051%=      5-min Rain = 0
KMC1 241840Z 17005G12KT 30/18 A2986 RMK A01 T02980184  RH  051%=      5-min Rain = 0
KMC1 241841Z 15009G14KT 30/19 A2986 RMK A01 T02990186  RH  051%=      5-min Rain = 0
KMC1 241842Z 16012G18KT 30/19 A2986 RMK A01 T03020185  RH  050%=      5-min Rain = 0
KMC1 241843Z 17011G17KT 30/18 A2986 RMK A01 T02990183  RH  050%=      5-min Rain = 0
KMC1 241844Z 17010KT 30/18 A2986 RMK A01 T02960183  RH  051%=      5-min Rain = 0
KMC1 241845Z 16012KT 29/18 A2986 RMK A01 T02940183  RH  051%=      5-min Rain = 0
KMC1 241846Z 14009KT 29/18 A2986 RMK A01 T02920184  RH  052%=      5-min Rain = 0
KMC1 241847Z 15009G14KT 29/19 A2985 RMK A01 T02920185  RH  053%=      5-min Rain = 0
KMC1 241848Z 16011G17KT 30/19 A2985 RMK A01 T02960187  RH  052%=      5-min Rain = 0
KMC1 241849Z 16011G19KT 30/19 A2985 RMK A01 T03000188  RH  051%=      5-min Rain = 0
KMC1 241850Z 17010KT 30/19 A2985 RMK A01 T03020186  RH  050%=      5-min Rain = 0
KMC1 241851Z 18010KT 30/19 A2985 RMK A01 T03010185  RH  050%=      5-min Rain = 0
KMC1 241852Z 19010KT 30/18 A2985 RMK A01 T02980184  RH  050%=      5-min Rain = 0
KMC1 241853Z 18013KT 30/18 A2985 RMK A01 T02960184  RH  051%=      5-min Rain = 0
KMC1 241854Z 17008G13KT 29/18 A2985 RMK A01 T02940184  RH  051%=      5-min Rain = 0
KMC1 241855Z 16013G18KT 30/19 A2985 RMK A01 T02950186  RH  052%=      5-min Rain = 0
KMC1 241856Z 14011KT 30/19 A2985 RMK A01 T02990187  RH  051%=      5-min Rain = 0
KMC1 241857Z 15014KT 30/19 A2985 RMK A01 T03020186  RH  050%=      5-min Rain = 0
KMC1 241858Z 16011KT 30/19 A2985 RMK A01 T03030186  RH  050%=      5-min Rain = 0
KMC1 241859Z 16008KT 30/18 A2985 RMK A01 T03010184  RH  050%=      5-min Rain = 0
KMC1 241900Z 16012G18KT 30/19 A2985 RMK A01 T02990185  RH  050%=      5-min Rain = 0
KMC1 241901Z 17009G14KT 30/19 A2985 RMK A01 T02960185  RH  051%=      5-min Rain = 0
KMC1 241902Z 15010KT 30/19 A2985 RMK A01 T02990188  RH  051%=      5-min Rain = 0
KMC1 241903Z 15009G15KT 30/19 A2984 RMK A01 T03030186  RH  050%=      5-min Rain = 0
KMC1 241904Z 15010KT 31/19 A2984 RMK A01 T03050187  RH  049%=      5-min Rain = 0
KMC1 241905Z 17012KT 31/19 A2984 RMK A01 T03060186  RH  049%=      5-min Rain = 0
KMC1 241906Z 17014G23KT 30/18 A2984 RMK A01 T03030181  RH  048%=      5-min Rain = 0
KMC1 241907Z 19011G16KT 30/18 A2984 RMK A01 T03000181  RH  049%=      5-min Rain = 0
KMC1 241908Z 19009KT 30/18 A2984 RMK A01 T03000183  RH  050%=      5-min Rain = 0
KMC1 241909Z 20009KT 30/18 A2984 RMK A01 T03030183  RH  049%=      5-min Rain = 0
KMC1 241910Z 18008G13KT 31/18 A2984 RMK A01 T03050183  RH  048%=      5-min Rain = 0
KMC1 241911Z 15010KT 31/19 A2984 RMK A01 T03060185  RH  048%=      5-min Rain = 0
KMC1 241912Z 15010KT 31/19 A2984 RMK A01 T03060185  RH  048%=      5-min Rain = 0
KMC1 241913Z 14008KT 31/19 A2984 RMK A01 T03060185  RH  049%=      5-min Rain = 0
KMC1 241914Z 15013KT 31/19 A2984 RMK A01 T03060185  RH  049%=      5-min Rain = 0
KMC1 241915Z 16010G15KT 31/18 A2984 RMK A01 T03050183  RH  048%=      5-min Rain = 0
KMC1 241916Z 16008KT 30/18 A2984 RMK A01 T03010184  RH  050%=      5-min Rain = 0
KMC1 241917Z 16012G18KT 30/18 A2984 RMK A01 T03000184  RH  050%=      5-min Rain = 0
KMC1 241918Z 16011KT 30/18 A2984 RMK A01 T03000184  RH  050%=      5-min Rain = 0
KMC1 241919Z 15010G15KT 30/18 A2984 RMK A01 T03000184  RH  050%=      5-min Rain = 0
KMC1 241920Z 15011G19KT 30/18 A2983 RMK A01 T03020184  RH  049%=      5-min Rain = 0
KMC1 241921Z 17009G14KT 30/19 A2983 RMK A01 T03040186  RH  049%=      5-min Rain = 0
KMC1 241922Z 16011G16KT 31/19 A2983 RMK A01 T03070186  RH  048%=      5-min Rain = 0
KMC1 241923Z 18011KT 31/19 A2983 RMK A01 T03060186  RH  049%=      5-min Rain = 0
KMC1 241924Z 17009G14KT 31/19 A2983 RMK A01 T03050185  RH  049%=      5-min Rain = 0
KMC1 241925Z 16011KT 31/19 A2983 RMK A01 T03070185  RH  048%=      5-min Rain = 0
KMC1 241926Z 16010G16KT 31/18 A2983 RMK A01 T03070184  RH  048%=      5-min Rain = 0
KMC1 241927Z 17012G19KT 31/18 A2983 RMK A01 T03070184  RH  048%=      5-min Rain = 0
KMC1 241928Z 17011G17KT 31/19 A2983 RMK A01 T03070185  RH  048%=      5-min Rain = 0
KMC1 241929Z 15011G18KT 31/18 A2983 RMK A01 T03080184  RH  048%=      5-min Rain = 0
KMC1 241930Z 18012G18KT 31/19 A2983 RMK A01 T03100185  RH  047%=      5-min Rain = 0
KMC1 241931Z 18013KT 31/18 A2983 RMK A01 T03100183  RH  047%=      5-min Rain = 0
KMC1 241932Z 17011KT 31/18 A2983 RMK A01 T03070184  RH  048%=      5-min Rain = 0
KMC1 241933Z 19008KT 31/19 A2983 RMK A01 T03070186  RH  049%=      5-min Rain = 0
KMC1 241934Z 19009G14KT 31/19 A2982 RMK A01 T03090186  RH  048%=      5-min Rain = 0
KMC1 241935Z 18008KT 31/19 A2982 RMK A01 T03120189  RH  048%=      5-min Rain = 0
KMC1 241936Z 16009KT 32/19 A2982 RMK A01 T03150186  RH  046%=      5-min Rain = 0
KMC1 241937Z 16007KT 31/19 A2982 RMK A01 T03130185  RH  047%=      5-min Rain = 0
KMC1 241938Z 15008KT 31/19 A2982 RMK A01 T03090186  RH  048%=      5-min Rain = 0
KMC1 241939Z 16013KT 31/19 A2982 RMK A01 T03060185  RH  048%=      5-min Rain = 0
KMC1 241940Z 17010KT 30/19 A2982 RMK A01 T03030185  RH  049%=      5-min Rain = 0
KMC1 241941Z 15008KT 30/19 A2982 RMK A01 T03000187  RH  051%=      5-min Rain = 0
KMC1 241942Z 15009KT 30/19 A2982 RMK A01 T03040186  RH  049%=      5-min Rain = 0
KMC1 241943Z 16008KT 31/19 A2982 RMK A01 T03080187  RH  049%=      5-min Rain = 0
KMC1 241944Z 17009KT 31/19 A2982 RMK A01 T03130191  RH  048%=      5-min Rain = 0
KMC1 241945Z 18013G18KT 32/19 A2982 RMK A01 T03160186  RH  046%=      5-min Rain = 0
KMC1 241946Z 19012KT 31/18 A2982 RMK A01 T03110182  RH  046%=      5-min Rain = 0
KMC1 241947Z 18013G19KT 30/18 A2982 RMK A01 T03040182  RH  048%=      5-min Rain = 0
KMC1 241948Z 17012KT 30/18 A2982 RMK A01 T03000183  RH  049%=      5-min Rain = 0
KMC1 241949Z 18007KT 30/18 A2982 RMK A01 T02980184  RH  051%=      5-min Rain = 0
KMC1 241950Z 19010KT 30/18 A2982 RMK A01 T02970183  RH  050%=      5-min Rain = 0
KMC1 241951Z 19009KT 30/18 A2982 RMK A01 T02970183  RH  050%=      5-min Rain = 0
KMC1 241952Z 17007G12KT 30/18 A2982 RMK A01 T02970184  RH  051%=      5-min Rain = 0
KMC1 241953Z 17006KT 30/19 A2981 RMK A01 T02970187  RH  052%=      5-min Rain = 0
KMC1 241954Z 17010KT 30/19 A2981 RMK A01 T03020186  RH  050%=      5-min Rain = 0
KMC1 241955Z 18011KT 30/18 A2981 RMK A01 T03040184  RH  049%=      5-min Rain = 0
KMC1 241956Z 19009G14KT 30/18 A2981 RMK A01 T03030184  RH  049%=      5-min Rain = 0
KMC1 241957Z 19010KT 30/18 A2981 RMK A01 T03020182  RH  049%=      5-min Rain = 0
KMC1 241958Z 19010KT 30/19 A2981 RMK A01 T03010185  RH  050%=      5-min Rain = 0
KMC1 241959Z 19011KT 30/19 A2981 RMK A01 T03030186  RH  049%=      5-min Rain = 0
KMC1 242000Z 19008KT 31/19 A2981 RMK A01 T03060186  RH  049%=      5-min Rain = 0
KMC1 242001Z 19011G17KT 31/19 A2981 RMK A01 T03070187  RH  049%=      5-min Rain = 0
KMC1 242002Z 19011KT 31/18 A2981 RMK A01 T03080183  RH  047%=      5-min Rain = 0
KMC1 242003Z 19007KT 31/19 A2981 RMK A01 T03080187  RH  049%=      5-min Rain = 0
KMC1 242004Z 18011KT 31/19 A2981 RMK A01 T03110187  RH  047%=      5-min Rain = 0
KMC1 242005Z 17011KT 31/18 A2981 RMK A01 T03140182  RH  046%=      5-min Rain = 0
KMC1 242006Z 19008G13KT 31/18 A2981 RMK A01 T03120182  RH  046%=      5-min Rain = 0
KMC1 242007Z 18012G19KT 31/18 A298 RMK A01 T03100182  RH  046%=      5-min Rain = 0
KMC1 242008Z 17011G17KT 31/18 A2981 RMK A01 T03070183  RH  048%=      5-min Rain = 0
KMC1 242009Z 15011G16KT 30/19 A298 RMK A01 T03040185  RH  049%=      5-min Rain = 0
KMC1 242010Z 16013KT 30/18 A298 RMK A01 T03040182  RH  048%=      5-min Rain = 0
KMC1 242011Z 16010G15KT 30/18 A298 RMK A01 T03020181  RH  048%=      5-min Rain = 0
KMC1 242012Z 17009KT 30/18 A298 RMK A01 T03010181  RH  048%=      5-min Rain = 0
KMC1 242013Z 15008G15KT 30/18 A298 RMK A01 T03010184  RH  049%=      5-min Rain = 0
KMC1 242014Z 16011KT 30/18 A298 RMK A01 T03040184  RH  049%=      5-min Rain = 0
KMC1 242015Z 18013KT 31/18 A298 RMK A01 T03070183  RH  048%=      5-min Rain = 0
KMC1 242016Z 17012KT 31/18 A298 RMK A01 T03080180  RH  046%=      5-min Rain = 0
KMC1 242017Z 19008KT 31/18 A298 RMK A01 T03080183  RH  047%=      5-min Rain = 0
KMC1 242018Z 16011G18KT 31/18 A2979 RMK A01 T03110183  RH  046%=      5-min Rain = 0
KMC1 242019Z 19009KT 31/19 A2979 RMK A01 T03130185  RH  047%=      5-min Rain = 0
KMC1 242020Z 18010KT 31/18 A2979 RMK A01 T03130184  RH  046%=      5-min Rain = 0
KMC1 242021Z 15012KT 31/19 A2979 RMK A01 T03120185  RH  047%=      5-min Rain = 0
KMC1 242022Z 14011G17KT 31/19 A2979 RMK A01 T03090185  RH  048%=      5-min Rain = 0
KMC1 242023Z 14010KT 31/19 A2979 RMK A01 T03090186  RH  048%=      5-min Rain = 0
KMC1 242024Z 14012G18KT 31/19 A2979 RMK A01 T03130187  RH  047%=      5-min Rain = 0
KMC1 242025Z 14013G18KT 32/19 A2979 RMK A01 T03150185  RH  046%=      5-min Rain = 0
KMC1 242026Z 13012KT 31/19 A2979 RMK A01 T03100185  RH  047%=      5-min Rain = 0
KMC1 242027Z 14012G17KT 31/19 A2979 RMK A01 T03070185  RH  048%=      5-min Rain = 0
KMC1 242028Z 16013G18KT 30/18 A2979 RMK A01 T03040184  RH  049%=      5-min Rain = 0
KMC1 242029Z 15012G17KT 30/18 A2979 RMK A01 T03010184  RH  049%=      5-min Rain = 0
KMC1 242030Z 16012G17KT 30/19 A2978 RMK A01 T03010185  RH  050%=      5-min Rain = 0
KMC1 242031Z 17013KT 30/18 A2978 RMK A01 T03020184  RH  049%=      5-min Rain = 0
KMC1 242032Z 17010G15KT 30/18 A2978 RMK A01 T03040184  RH  049%=      5-min Rain = 0
KMC1 242033Z 16010KT 31/19 A2978 RMK A01 T03060186  RH  049%=      5-min Rain = 0
KMC1 242034Z 16012KT 31/19 A2978 RMK A01 T03060187  RH  049%=      5-min Rain = 0
KMC1 242035Z 14011KT 31/19 A2978 RMK A01 T03070187  RH  049%=      5-min Rain = 0
KMC1 242036Z 16012G17KT 31/19 A2978 RMK A01 T03100189  RH  049%=      5-min Rain = 0
KMC1 242037Z 16014KT 31/19 A2978 RMK A01 T03120188  RH  048%=      5-min Rain = 0
KMC1 242038Z 17013KT 31/19 A2978 RMK A01 T03080186  RH  048%=      5-min Rain = 0
KMC1 242039Z 16011G16KT 30/19 A2978 RMK A01 T03040186  RH  049%=      5-min Rain = 0
KMC1 242040Z 16011KT 30/19 A2978 RMK A01 T03040186  RH  049%=      5-min Rain = 0
KMC1 242041Z 16011KT 31/19 A2978 RMK A01 T03070186  RH  048%=      5-min Rain = 0
KMC1 242042Z 16014G19KT 31/19 A2978 RMK A01 T03100185  RH  047%=      5-min Rain = 0
KMC1 242043Z 17014KT 31/18 A2978 RMK A01 T03100184  RH  047%=      5-min Rain = 0
KMC1 242044Z 17010KT 31/19 A2977 RMK A01 T03110185  RH  047%=      5-min Rain = 0
KMC1 242045Z 17010KT 31/18 A2977 RMK A01 T03100183  RH  047%=      5-min Rain = 0
KMC1 242046Z 18010KT 31/18 A2977 RMK A01 T03090183  RH  047%=      5-min Rain = 0
KMC1 242047Z 16008G16KT 31/19 A2977 RMK A01 T03080185  RH  048%=      5-min Rain = 0
KMC1 242048Z 16012KT 31/19 A2977 RMK A01 T03130185  RH  047%=      5-min Rain = 0
KMC1 242049Z 17011KT 31/19 A2977 RMK A01 T03140186  RH  046%=      5-min Rain = 0
KMC1 242050Z 19012KT 31/19 A2977 RMK A01 T03130185  RH  047%=      5-min Rain = 0
KMC1 242051Z 18013KT 31/18 A2977 RMK A01 T03080184  RH  048%=      5-min Rain = 0
KMC1 242052Z 18010KT 31/19 A2977 RMK A01 T03060185  RH  048%=      5-min Rain = 0
KMC1 242053Z 17009KT 31/19 A2977 RMK A01 T03070185  RH  048%=      5-min Rain = 0
KMC1 242054Z 18013KT 31/19 A2977 RMK A01 T03100189  RH  049%=      5-min Rain = 0
KMC1 242055Z 16013G21KT 32/19 A2977 RMK A01 T03150189  RH  047%=      5-min Rain = 0
KMC1 242056Z 17011KT 32/19 A2977 RMK A01 T03160189  RH  047%=      5-min Rain = 0
KMC1 242057Z 17008KT 32/19 A2977 RMK A01 T03150190  RH  047%=      5-min Rain = 0
KMC1 242058Z 18014KT 32/19 A2976 RMK A01 T03160189  RH  047%=      5-min Rain = 0
KMC1 242059Z 16010G15KT 31/19 A2976 RMK A01 T03140189  RH  047%=      5-min Rain = 0
KMC1 242100Z 16012KT 32/19 A2976 RMK A01 T03150188  RH  047%=      5-min Rain = 0
KMC1 242101Z 16013KT 32/19 A2976 RMK A01 T03170187  RH  046%=      5-min Rain = 0
KMC1 242102Z 17016KT 32/19 A2976 RMK A01 T03170187  RH  046%=      5-min Rain = 0
KMC1 242103Z 18016KT 32/19 A2976 RMK A01 T03150187  RH  047%=      5-min Rain = 0
KMC1 242104Z 18014G20KT 31/19 A2976 RMK A01 T03120189  RH  048%=      5-min Rain = 0
KMC1 242105Z 19012G18KT 31/19 A2975 RMK A01 T03140188  RH  047%=      5-min Rain = 0
KMC1 242106Z 17011KT 31/19 A2975 RMK A01 T03130188  RH  048%=      5-min Rain = 0
KMC1 242107Z 15008KT 31/19 A2975 RMK A01 T03120188  RH  048%=      5-min Rain = 0
KMC1 242108Z 16010KT 32/19 A2975 RMK A01 T03150189  RH  047%=      5-min Rain = 0
KMC1 242109Z 16011KT 32/19 A2975 RMK A01 T03150187  RH  047%=      5-min Rain = 0
KMC1 242110Z 16010KT 31/19 A2975 RMK A01 T03120186  RH  047%=      5-min Rain = 0
KMC1 242111Z 16008KT 31/19 A2975 RMK A01 T03100186  RH  048%=      5-min Rain = 0
KMC1 242112Z 16013G18KT 31/19 A2975 RMK A01 T03110187  RH  048%=      5-min Rain = 0
KMC1 242113Z 16012G19KT 31/19 A2975 RMK A01 T03140187  RH  047%=      5-min Rain = 0
KMC1 242114Z 16010G16KT 32/19 A2975 RMK A01 T03160188  RH  047%=      5-min Rain = 0
KMC1 242115Z 17013G19KT 32/19 A2975 RMK A01 T03180189  RH  046%=      5-min Rain = 0
KMC1 242116Z 18011G19KT 32/19 A2975 RMK A01 T03170188  RH  046%=      5-min Rain = 0
KMC1 242117Z 18009G15KT 32/19 A2975 RMK A01 T03160188  RH  047%=      5-min Rain = 0
KMC1 242118Z 14010KT 32/19 A2975 RMK A01 T03190191  RH  047%=      5-min Rain = 0
KMC1 242119Z 13010G15KT 32/19 A2974 RMK A01 T03230190  RH  046%=      5-min Rain = 0
KMC1 242120Z 15010KT 32/19 A2974 RMK A01 T03230191  RH  046%=      5-min Rain = 0
KMC1 242121Z 15009KT 32/19 A2974 RMK A01 T03220190  RH  046%=      5-min Rain = 0
KMC1 242122Z 16008G13KT 32/19 A2974 RMK A01 T03200189  RH  046%=      5-min Rain = 0
KMC1 242123Z 15013G19KT 32/19 A2975 RMK A01 T03170187  RH  046%=      5-min Rain = 0
KMC1 242124Z 16014KT 31/19 A2975 RMK A01 T03130187  RH  047%=      5-min Rain = 0
KMC1 242125Z 16012G17KT 31/19 A2975 RMK A01 T03120187  RH  047%=      5-min Rain = 0
KMC1 242126Z 16010KT 31/19 A2975 RMK A01 T03110185  RH  047%=      5-min Rain = 0
KMC1 242127Z 18012G17KT 31/19 A2975 RMK A01 T03080186  RH  048%=      5-min Rain = 0
KMC1 242128Z 18012G18KT 31/19 A2974 RMK A01 T03050185  RH  049%=      5-min Rain = 0
KMC1 242129Z 18010KT 30/19 A2974 RMK A01 T03030186  RH  050%=      5-min Rain = 0
KMC1 242130Z 17005KT 30/19 A2974 RMK A01 T03030188  RH  050%=      5-min Rain = 0
KMC1 242131Z 14010G15KT 31/19 A2974 RMK A01 T03060188  RH  049%=      5-min Rain = 0
KMC1 242132Z 15013KT 31/19 A2974 RMK A01 T03090187  RH  048%=      5-min Rain = 0
KMC1 242133Z 15009G14KT 31/19 A2975 RMK A01 T03090187  RH  048%=      5-min Rain = 0
KMC1 242134Z 16008KT 31/19 A2975 RMK A01 T03090188  RH  048%=      5-min Rain = 0
KMC1 242135Z 17007KT 31/19 A2975 RMK A01 T03120191  RH  048%=      5-min Rain = 0
KMC1 242136Z 15011G17KT 32/19 A2975 RMK A01 T03160191  RH  048%=      5-min Rain = 0
KMC1 242137Z 14011KT 32/19 A2975 RMK A01 T03180191  RH  047%=      5-min Rain = 0
KMC1 242138Z 14012G18KT 32/19 A2975 RMK A01 T03170190  RH  047%=      5-min Rain = 0
KMC1 242139Z 14010G18KT 32/19 A2975 RMK A01 T03150190  RH  047%=      5-min Rain = 0
KMC1 242140Z 17011G17KT 31/19 A2975 RMK A01 T03140190  RH  047%=      5-min Rain = 0
KMC1 242141Z 18011KT 31/19 A2974 RMK A01 T03120188  RH  048%=      5-min Rain = 0
KMC1 242142Z 15009G14KT 31/19 A2974 RMK A01 T03080188  RH  049%=      5-min Rain = 0
KMC1 242143Z 15009G14KT 31/19 A2974 RMK A01 T03070189  RH  050%=      5-min Rain = 0
KMC1 242144Z 17012KT 31/19 A2974 RMK A01 T03050188  RH  050%=      5-min Rain = 0
KMC1 242145Z 15008G13KT 30/19 A2974 RMK A01 T03040190  RH  050%=      5-min Rain = 0
KMC1 242146Z 16010KT 31/19 A2974 RMK A01 T03080192  RH  050%=      5-min Rain = 0
KMC1 242147Z 17007G13KT 31/19 A2974 RMK A01 T03110192  RH  049%=      5-min Rain = 0
KMC1 242148Z 14009KT 31/19 A2974 RMK A01 T03140192  RH  048%=      5-min Rain = 0
KMC1 242149Z 14009KT 32/19 A2974 RMK A01 T03160193  RH  048%=      5-min Rain = 0
KMC1 242150Z 16010KT 32/19 A2974 RMK A01 T03170192  RH  048%=      5-min Rain = 0
KMC1 242151Z 16010KT 32/19 A2974 RMK A01 T03170191  RH  047%=      5-min Rain = 0
KMC1 242152Z 20008KT 32/19 A2974 RMK A01 T03160189  RH  047%=      5-min Rain = 0
KMC1 242153Z 19006KT 32/19 A2974 RMK A01 T03170188  RH  046%=      5-min Rain = 0
KMC1 242154Z 14005G11KT 32/19 A2974 RMK A01 T03190189  RH  046%=      5-min Rain = 0
KMC1 242155Z 15007KT 32/19 A2974 RMK A01 T03220194  RH  047%=      5-min Rain = 0
KMC1 242156Z 15009G15KT 33/19 A2974 RMK A01 T03250194  RH  046%=      5-min Rain = 0
KMC1 242157Z 15011G16KT 32/19 A2975 RMK A01 T03240193  RH  046%=      5-min Rain = 0
KMC1 242158Z 15012G19KT 32/19 A2975 RMK A01 T03220189  RH  045%=      5-min Rain = 0
KMC1 242159Z 16014G20KT 32/19 A2975 RMK A01 T03180187  RH  046%=      5-min Rain = 0
KMC1 242200Z 15013G18KT 31/19 A2975 RMK A01 T03130187  RH  047%=      5-min Rain = 0
KMC1 242201Z 16012KT 31/19 A2975 RMK A01 T03080187  RH  048%=      5-min Rain = 0
KMC1 242202Z 16013KT 31/19 A2975 RMK A01 T03050186  RH  049%=      5-min Rain = 0
KMC1 242203Z 16010G15KT 30/19 A2975 RMK A01 T03030186  RH  049%=      5-min Rain = 0
KMC1 242204Z 19012G18KT 30/19 A2975 RMK A01 T03030185  RH  049%=      5-min Rain = 0
KMC1 242205Z 18013G18KT 30/18 A2975 RMK A01 T03010184  RH  049%=      5-min Rain = 0
KMC1 242206Z 19013KT 30/18 A2975 RMK A01 T03000183  RH  049%=      5-min Rain = 0
KMC1 242207Z 18011KT 30/18 A2975 RMK A01 T02990184  RH  050%=      5-min Rain = 0
KMC1 242208Z 16008G13KT 30/19 A2975 RMK A01 T03000186  RH  050%=      5-min Rain = 0
KMC1 242209Z 17008KT 30/19 A2975 RMK A01 T03010187  RH  050%=      5-min Rain = 0
KMC1 242210Z 18007G12KT 30/19 A2974 RMK A01 T03030187  RH  050%=      5-min Rain = 0
KMC1 242211Z 17009KT 31/19 A2974 RMK A01 T03050187  RH  049%=      5-min Rain = 0
KMC1 242212Z 18010KT 31/19 A2974 RMK A01 T03050187  RH  049%=      5-min Rain = 0
KMC1 242213Z 16013G18KT 31/19 A2974 RMK A01 T03050188  RH  050%=      5-min Rain = 0
KMC1 242214Z 16011KT 31/19 A2974 RMK A01 T03050187  RH  049%=      5-min Rain = 0
KMC1 242215Z 16011KT 30/19 A2974 RMK A01 T03040187  RH  050%=      5-min Rain = 0
KMC1 242216Z 17010KT 30/19 A2974 RMK A01 T03030188  RH  050%=      5-min Rain = 0
KMC1 242217Z 17009KT 30/19 A2974 RMK A01 T03020188  RH  050%=      5-min Rain = 0
KMC1 242218Z 19008KT 30/19 A2974 RMK A01 T03020188  RH  051%=      5-min Rain = 0
KMC1 242219Z 18014KT 30/19 A2974 RMK A01 T03020187  RH  050%=      5-min Rain = 0
KMC1 242220Z 18010G15KT 30/19 A2974 RMK A01 T03010185  RH  050%=      5-min Rain = 0
KMC1 242221Z 18012KT 30/19 A2974 RMK A01 T03000185  RH  050%=      5-min Rain = 0
KMC1 242222Z 19015KT 30/19 A2974 RMK A01 T02990186  RH  051%=      5-min Rain = 0
KMC1 242223Z 18011KT 30/19 A2974 RMK A01 T02980187  RH  051%=      5-min Rain = 0
KMC1 242224Z 18012KT 30/19 A2974 RMK A01 T02960188  RH  052%=      5-min Rain = 0
KMC1 242225Z 18015G21KT 30/19 A2974 RMK A01 T02960188  RH  052%=      5-min Rain = 0
KMC1 242226Z 18015KT 30/19 A2974 RMK A01 T02960188  RH  052%=      5-min Rain = 0
KMC1 242227Z 17013G19KT 30/19 A2974 RMK A01 T02950188  RH  053%=      5-min Rain = 0
KMC1 242228Z 18014G19KT 30/19 A2974 RMK A01 T02950188  RH  052%=      5-min Rain = 0
KMC1 242229Z 17009G15KT 29/19 A2974 RMK A01 T02940188  RH  053%=      5-min Rain = 0
KMC1 242230Z 17012KT 30/19 A2974 RMK A01 T02950188  RH  053%=      5-min Rain = 0
KMC1 242231Z 17014KT 29/19 A2974 RMK A01 T02940187  RH  053%=      5-min Rain = 0
KMC1 242232Z 16011G18KT 29/19 A2974 RMK A01 T02940188  RH  053%=      5-min Rain = 0
KMC1 242233Z 17011G16KT 29/19 A2974 RMK A01 T02930187  RH  053%=      5-min Rain = 0
KMC1 242234Z 17015KT 29/19 A2974 RMK A01 T02930187  RH  053%=      5-min Rain = 0
KMC1 242235Z 17012G17KT 29/19 A2974 RMK A01 T02930185  RH  052%=      5-min Rain = 0
KMC1 242236Z 18008G14KT 29/19 A2974 RMK A01 T02920185  RH  053%=      5-min Rain = 0
KMC1 242237Z 18009G15KT 29/19 A2974 RMK A01 T02920186  RH  053%=      5-min Rain = 0
KMC1 242238Z 18011G16KT 29/19 A2974 RMK A01 T02920187  RH  053%=      5-min Rain = 0
KMC1 242239Z 17011KT 29/19 A2974 RMK A01 T02920188  RH  053%=      5-min Rain = 0
KMC1 242240Z 17011G16KT 29/19 A2974 RMK A01 T02920189  RH  054%=      5-min Rain = 0
KMC1 242241Z 17011G19KT 29/19 A2974 RMK A01 T02920189  RH  054%=      5-min Rain = 0
KMC1 242242Z 18015KT 29/19 A2974 RMK A01 T02910186  RH  053%=      5-min Rain = 0
KMC1 242243Z 16014G19KT 29/19 A2974 RMK A01 T02910185  RH  053%=      5-min Rain = 0
KMC1 242244Z 17013KT 29/18 A2974 RMK A01 T02900184  RH  053%=      5-min Rain = 0
KMC1 242245Z 17013G18KT 29/18 A2974 RMK A01 T02890184  RH  053%=      5-min Rain = 0
KMC1 242246Z 17014G19KT 29/19 A2974 RMK A01 T02890185  RH  053%=      5-min Rain = 0
KMC1 242247Z 17012KT 29/19 A2974 RMK A01 T02890185  RH  054%=      5-min Rain = 0
KMC1 242248Z 17011KT 29/19 A2973 RMK A01 T02880185  RH  054%=      5-min Rain = 0
KMC1 242249Z 16013KT 29/18 A2973 RMK A01 T02880184  RH  053%=      5-min Rain = 0
KMC1 242250Z 18010KT 29/19 A2973 RMK A01 T02870185  RH  054%=      5-min Rain = 0
KMC1 242251Z 18011G16KT 29/19 A2973 RMK A01 T02870186  RH  054%=      5-min Rain = 0
KMC1 242252Z 17012KT 29/19 A2973 RMK A01 T02870187  RH  055%=      5-min Rain = 0
KMC1 242253Z 17013G18KT 29/19 A2973 RMK A01 T02860187  RH  055%=      5-min Rain = 0
KMC1 242254Z 18010G16KT 29/19 A2973 RMK A01 T02850187  RH  055%=      5-min Rain = 0
KMC1 242255Z 18013G18KT 29/19 A2973 RMK A01 T02850186  RH  055%=      5-min Rain = 0
KMC1 242256Z 18016KT 28/19 A2973 RMK A01 T02840185  RH  055%=      5-min Rain = 0
KMC1 242257Z 17012G17KT 28/19 A2973 RMK A01 T02840185  RH  055%=      5-min Rain = 0
KMC1 242258Z 18008KT 28/19 A2973 RMK A01 T02840186  RH  055%=      5-min Rain = 0
KMC1 242259Z 18010G15KT 28/19 A2973 RMK A01 T02840186  RH  056%=      5-min Rain = 0
KMC1 242300Z 18011KT 28/19 A2973 RMK A01 T02840187  RH  056%=      5-min Rain = 0
KMC1 242301Z 18010KT 28/19 A2973 RMK A01 T02830188  RH  056%=      5-min Rain = 0
KMC1 242302Z 18009KT 28/19 A2973 RMK A01 T02830188  RH  056%=      5-min Rain = 0
KMC1 242303Z 17011KT 28/19 A2973 RMK A01 T02830189  RH  057%=      5-min Rain = 0
KMC1 242304Z 17010KT 28/19 A2973 RMK A01 T02830189  RH  057%=      5-min Rain = 0
KMC1 242305Z 18012G17KT 28/19 A2973 RMK A01 T02820190  RH  057%=      5-min Rain = 0
KMC1 242306Z 18013KT 28/19 A2972 RMK A01 T02820190  RH  057%=      5-min Rain = 0
KMC1 242307Z 18012KT 28/19 A2972 RMK A01 T02820190  RH  057%=      5-min Rain = 0
KMC1 242308Z 18009G17KT 28/19 A2972 RMK A01 T02810190  RH  058%=      5-min Rain = 0
KMC1 242309Z 17011KT 28/19 A2972 RMK A01 T02810190  RH  058%=      5-min Rain = 0
KMC1 242310Z 17007KT 28/19 A2972 RMK A01 T02810191  RH  058%=      5-min Rain = 0
KMC1 242311Z 17012KT 28/19 A2972 RMK A01 T02810191  RH  058%=      5-min Rain = 0
KMC1 242312Z 18011KT 28/19 A2972 RMK A01 T02810191  RH  058%=      5-min Rain = 0
KMC1 242313Z 18010KT 28/19 A2972 RMK A01 T02810191  RH  058%=      5-min Rain = 0
KMC1 242314Z 17011KT 28/19 A2972 RMK A01 T02800191  RH  058%=      5-min Rain = 0
KMC1 242315Z 15007G12KT 28/19 A2972 RMK A01 T02810191  RH  058%=      5-min Rain = 0
KMC1 242316Z 16008KT 28/19 A2972 RMK A01 T02800191  RH  058%=      5-min Rain = 0
KMC1 242317Z 15007KT 28/19 A2972 RMK A01 T02810191  RH  058%=      5-min Rain = 0
KMC1 242318Z 15006KT 28/19 A2972 RMK A01 T02800191  RH  058%=      5-min Rain = 0
KMC1 242319Z 16009KT 28/19 A2973 RMK A01 T02810191  RH  058%=      5-min Rain = 0
KMC1 242320Z 17010KT 28/19 A2973 RMK A01 T02810190  RH  058%=      5-min Rain = 0
KMC1 242321Z 17007KT 28/19 A2973 RMK A01 T02810190  RH  058%=      5-min Rain = 0
KMC1 242322Z 18007KT 28/19 A2973 RMK A01 T02810191  RH  058%=      5-min Rain = 0
KMC1 242323Z 16004KT 28/19 A2973 RMK A01 T02810190  RH  058%=      5-min Rain = 0
KMC1 242324Z 16006KT 28/19 A2973 RMK A01 T02810191  RH  058%=      5-min Rain = 0
KMC1 242325Z 15010KT 28/19 A2973 RMK A01 T02810189  RH  057%=      5-min Rain = 0
KMC1 242326Z 16010G15KT 28/19 A2973 RMK A01 T02810187  RH  057%=      5-min Rain = 0
KMC1 242327Z 16009KT 28/19 A2973 RMK A01 T02810187  RH  057%=      5-min Rain = 0
KMC1 242328Z 16010KT 28/19 A2973 RMK A01 T02810187  RH  057%=      5-min Rain = 0
KMC1 242329Z 16010KT 28/19 A2972 RMK A01 T02800187  RH  057%=      5-min Rain = 0
KMC1 242330Z 17008KT 28/19 A2973 RMK A01 T02800187  RH  057%=      5-min Rain = 0
KMC1 242331Z 18009KT 28/19 A2973 RMK A01 T02800187  RH  057%=      5-min Rain = 0
KMC1 242332Z 17011KT 28/19 A2973 RMK A01 T02800187  RH  057%=      5-min Rain = 0
KMC1 242333Z 17010KT 28/19 A2973 RMK A01 T02800187  RH  057%=      5-min Rain = 0
KMC1 242334Z 17011KT 28/19 A2973 RMK A01 T02800187  RH  057%=      5-min Rain = 0
KMC1 242335Z 18011KT 28/19 A2973 RMK A01 T02800187  RH  057%=      5-min Rain = 0
KMC1 242336Z 18010KT 28/19 A2973 RMK A01 T02800187  RH  057%=      5-min Rain = 0
KMC1 242337Z 18008KT 28/19 A2973 RMK A01 T02800187  RH  057%=      5-min Rain = 0
KMC1 242338Z 17007KT 28/19 A2973 RMK A01 T02800187  RH  057%=      5-min Rain = 0
KMC1 242339Z 17007KT 28/19 A2973 RMK A01 T02800187  RH  057%=      5-min Rain = 0
KMC1 242340Z 17008KT 28/19 A2973 RMK A01 T02800188  RH  057%=      5-min Rain = 0
KMC1 242341Z 17008KT 28/19 A2973 RMK A01 T02800187  RH  057%=      5-min Rain = 0
KMC1 242342Z 18006KT 28/19 A2973 RMK A01 T02800187  RH  057%=      5-min Rain = 0
KMC1 242343Z 19008KT 28/19 A2973 RMK A01 T02800187  RH  057%=      5-min Rain = 0
KMC1 242344Z 18005KT 28/19 A2973 RMK A01 T02800187  RH  057%=      5-min Rain = 0
KMC1 242345Z 19008KT 28/19 A2973 RMK A01 T02800187  RH  057%=      5-min Rain = 0
KMC1 242346Z 18008KT 28/19 A2973 RMK A01 T02800186  RH  057%=      5-min Rain = 0
KMC1 242347Z 18006KT 28/19 A2973 RMK A01 T02800186  RH  057%=      5-min Rain = 0
KMC1 242348Z 18008G13KT 28/19 A2974 RMK A01 T02800187  RH  057%=      5-min Rain = 0
KMC1 242349Z 19007KT 28/19 A2974 RMK A01 T02800186  RH  057%=      5-min Rain = 0
KMC1 242350Z 21008KT 28/19 A2974 RMK A01 T02800187  RH  057%=      5-min Rain = 0
KMC1 242351Z 20008KT 28/19 A2974 RMK A01 T02800187  RH  057%=      5-min Rain = 0
KMC1 242352Z 22007KT 28/19 A2974 RMK A01 T02810187  RH  057%=      5-min Rain = 0
KMC1 242353Z 23006KT 28/19 A2974 RMK A01 T02810187  RH  057%=      5-min Rain = 0
KMC1 242354Z 24009G17KT 28/19 A2975 RMK A01 T02800187  RH  057%=      5-min Rain = 0
KMC1 242355Z 26014G23KT 28/19 A2976 RMK A01 T02800186  RH  056%=      5-min Rain = 0
KMC1 242356Z 27016G24KT 28/16 A2977 RMK A01 T02750161  RH  050%=      5-min Rain = 0
KMC1 242357Z 27015G25KT 26/14 A2977 RMK A01 T02590139  RH  048%=      5-min Rain = 0
KMC1 242358Z 27014G21KT 24/13 A2976 RMK A01 T02440132  RH  049%=      5-min Rain = 0
KMC1 242359Z 26014G20KT 24/13 A2976 RMK A01 T02350131  RH  052%=      5-min Rain = 0
KMC1 250000Z 26012G17KT 23/13 A2976 RMK A01 T02290130  RH  054%=      5-min Rain = 0
KMC1 250001Z 26012G17KT 23/13 A2977 RMK A01 T02250130  RH  055%=      5-min Rain = 0
KMC1 250002Z 26017G25KT 22/13 A2977 RMK A01 T02220129  RH  055%=      5-min Rain = 0
KMC1 250003Z 27012G19KT 22/13 A2977 RMK A01 T02200128  RH  056%=      5-min Rain = 0
KMC1 250004Z 27010KT 22/13 A2977 RMK A01 T02180128  RH  057%=      5-min Rain = 0
KMC1 250005Z 25016G27KT 22/13 A2977 RMK A01 T02170128  RH  057%=      5-min Rain = 0
KMC1 250006Z 26019G30KT 22/13 A2977 RMK A01 T02150126  RH  057%=      5-min Rain = 0
KMC1 250007Z 26018G28KT 21/13 A2977 RMK A01 T02120125  RH  057%=      5-min Rain = 0
KMC1 250008Z 27021G30KT 21/13 A2977 RMK A01 T02100125  RH  058%=      5-min Rain = 0
KMC1 250009Z 27016G27KT 21/13 A2977 RMK A01 T02080125  RH  059%=      5-min Rain = 0
KMC1 250010Z 28016G21KT 21/13 A2977 RMK A01 T02070126  RH  060%=      5-min Rain = 0
KMC1 250011Z 28017G24KT 21/13 A2977 RMK A01 T02070126  RH  060%=      5-min Rain = 0
KMC1 250012Z 27016G22KT 21/13 A2977 RMK A01 T02060126  RH  060%=      5-min Rain = 0
KMC1 250013Z 27014G20KT 21/13 A2977 RMK A01 T02050127  RH  061%=      5-min Rain = 0
KMC1 250014Z 27012G20KT 20/13 A2978 RMK A01 T02040127  RH  061%=      5-min Rain = 0
KMC1 250015Z 27013G18KT 20/13 A2978 RMK A01 T02040127  RH  061%=      5-min Rain = 0
KMC1 250016Z 28015G21KT 20/13 A2979 RMK A01 T02040127  RH  061%=      5-min Rain = 0
KMC1 250017Z 27014KT 20/13 A2979 RMK A01 T02030127  RH  062%=      5-min Rain = 0
KMC1 250018Z 27012KT 20/13 A2979 RMK A01 T02020129  RH  063%=      5-min Rain = 0
KMC1 250019Z 28016G21KT 20/13 A2978 RMK A01 T02020132  RH  064%=      5-min Rain = 0
KMC1 250020Z 29018G23KT 20/13 A2978 RMK A01 T01990134  RH  066%=      5-min Rain = 0
KMC1 250021Z 28015KT 20/14 A2978 RMK A01 T01970136  RH  068%=      5-min Rain = 0
KMC1 250022Z 29017G23KT 19/14 A2978 RMK A01 T01930141  RH  072%=      5-min Rain = 0.03
KMC1 250023Z 29015G22KT 19/14 A2979 RMK A01 T01880144  RH  075%=      5-min Rain = 0.04
KMC1 250024Z 30013G20KT 18/15 A2979 RMK A01 T01820147  RH  080%=      5-min Rain = 0.02
KMC1 250025Z 28011KT 18/15 A2979 RMK A01 T01760147  RH  083%=      5-min Rain = 0.03
KMC1 250026Z 29011KT 17/15 A2979 RMK A01 T01720148  RH  086%=      5-min Rain = 0.04
KMC1 250027Z 29006G11KT 17/15 A2979 RMK A01 T01690146  RH  087%=      5-min Rain = 0.02
KMC1 250028Z 27005KT 17/15 A2979 RMK A01 T01660148  RH  089%=      5-min Rain = 0.01
KMC1 250029Z 28010G17KT 17/15 A2978 RMK A01 T01650150  RH  091%=      5-min Rain = 0.01
KMC1 250030Z 27011KT 16/15 A2978 RMK A01 T01630150  RH  092%=      5-min Rain = 0.01
KMC1 250031Z 29010KT 16/15 A2978 RMK A01 T01620152  RH  093%=      5-min Rain = 0
KMC1 250032Z 28007KT 16/15 A2978 RMK A01 T01620152  RH  094%=      5-min Rain = 0.02
KMC1 250033Z 28006G13KT 16/15 A2978 RMK A01 T01610153  RH  095%=      5-min Rain = 0.02
KMC1 250034Z 26011G16KT 16/15 A2977 RMK A01 T01610154  RH  096%=      5-min Rain = 0
KMC1 250035Z 27010KT 16/15 A2977 RMK A01 T01600154  RH  096%=      5-min Rain = 0.01
KMC1 250036Z 28010G16KT 16/15 A2977 RMK A01 T01600154  RH  097%=      5-min Rain = 0
KMC1 250037Z 28011G16KT 16/15 A2976 RMK A01 T01590154  RH  097%=      5-min Rain = 0
KMC1 250038Z 28010G18KT 16/15 A2976 RMK A01 T01590154  RH  097%=      5-min Rain = 0
KMC1 250039Z 28011G17KT 16/16 A2976 RMK A01 T01590155  RH  097%=      5-min Rain = 0.01
KMC1 250040Z 27011G16KT 16/15 A2976 RMK A01 T01590154  RH  097%=      5-min Rain = 0
KMC1 250041Z 27011G17KT 16/15 A2977 RMK A01 T01590154  RH  097%=      5-min Rain = 0
KMC1 250042Z 27011G16KT 16/15 A2977 RMK A01 T01590153  RH  097%=      5-min Rain = 0
KMC1 250043Z 26012G19KT 16/15 A2977 RMK A01 T01590153  RH  096%=      5-min Rain = 0
KMC1 250044Z 25011G17KT 16/15 A2978 RMK A01 T01600153  RH  096%=      5-min Rain = 0
KMC1 250045Z 25010G15KT 16/15 A2977 RMK A01 T01600153  RH  095%=      5-min Rain = 0.01
KMC1 250046Z 26011KT 16/15 A2977 RMK A01 T01600152  RH  095%=      5-min Rain = 0
KMC1 250047Z 26008KT 16/15 A2977 RMK A01 T01600153  RH  095%=      5-min Rain = 0
KMC1 250048Z 26007KT 16/15 A2977 RMK A01 T01610153  RH  095%=      5-min Rain = 0
KMC1 250049Z 25007KT 16/15 A2977 RMK A01 T01600153  RH  095%=      5-min Rain = 0
KMC1 250050Z 26006KT 16/15 A2976 RMK A01 T01610153  RH  095%=      5-min Rain = 0
KMC1 250051Z 26010KT 16/15 A2976 RMK A01 T01610154  RH  096%=      5-min Rain = 0
KMC1 250052Z 26010G15KT 16/15 A2976 RMK A01 T01610152  RH  095%=      5-min Rain = 0
KMC1 250053Z 25011KT 16/15 A2976 RMK A01 T01610152  RH  094%=      5-min Rain = 0
KMC1 250054Z 25010KT 16/15 A2976 RMK A01 T01610152  RH  094%=      5-min Rain = 0
KMC1 250055Z 25010G15KT 16/15 A2975 RMK A01 T01620153  RH  095%=      5-min Rain = 0
KMC1 250056Z 26008G14KT 16/15 A2975 RMK A01 T01620153  RH  095%=      5-min Rain = 0
KMC1 250057Z 26011KT 16/15 A2975 RMK A01 T01610154  RH  095%=      5-min Rain = 0
KMC1 250058Z 26009KT 16/15 A2975 RMK A01 T01620153  RH  095%=      5-min Rain = 0
KMC1 250059Z 26010KT 16/15 A2975 RMK A01 T01620154  RH  095%=      5-min Rain = 0
KMC1 250100Z 25009KT 16/15 A2975 RMK A01 T01620154  RH  095%=      5-min Rain = 0
KMC1 250101Z 26009G14KT 16/15 A2975 RMK A01 T01620154  RH  095%=      5-min Rain = 0
KMC1 250102Z 25009G14KT 16/16 A2975 RMK A01 T01620155  RH  095%=      5-min Rain = 0
KMC1 250103Z 25010G15KT 16/16 A2975 RMK A01 T01620155  RH  096%=      5-min Rain = 0
KMC1 250104Z 25012KT 16/16 A2975 RMK A01 T01620155  RH  095%=      5-min Rain = 0
KMC1 250105Z 25009KT 16/15 A2975 RMK A01 T01620153  RH  095%=      5-min Rain = 0
KMC1 250106Z 26008KT 16/15 A2975 RMK A01 T01630154  RH  095%=      5-min Rain = 0
KMC1 250107Z 26009KT 16/15 A2975 RMK A01 T01630154  RH  095%=      5-min Rain = 0
KMC1 250108Z 26011KT 16/15 A2975 RMK A01 T01630153  RH  094%=      5-min Rain = 0
KMC1 250109Z 26009KT 16/15 A2975 RMK A01 T01630153  RH  094%=      5-min Rain = 0
KMC1 250110Z 26008KT 16/15 A2975 RMK A01 T01640153  RH  094%=      5-min Rain = 0
KMC1 250111Z 25007KT 16/15 A2976 RMK A01 T01640154  RH  094%=      5-min Rain = 0
KMC1 250112Z 25008KT 16/15 A2976 RMK A01 T01640154  RH  094%=      5-min Rain = 0
KMC1 250113Z 25009KT 16/15 A2976 RMK A01 T01640154  RH  094%=      5-min Rain = 0
KMC1 250114Z 25007KT 16/15 A2976 RMK A01 T01640153  RH  093%=      5-min Rain = 0
KMC1 250115Z 25008KT 16/15 A2976 RMK A01 T01640153  RH  093%=      5-min Rain = 0
KMC1 250116Z 24008KT 16/15 A2976 RMK A01 T01640153  RH  094%=      5-min Rain = 0
KMC1 250117Z 24008KT 16/15 A2976 RMK A01 T01640153  RH  093%=      5-min Rain = 0
KMC1 250118Z 24008KT 16/15 A2975 RMK A01 T01640153  RH  093%=      5-min Rain = 0
KMC1 250119Z 24007KT 16/15 A2975 RMK A01 T01640153  RH  094%=      5-min Rain = 0
KMC1 250120Z 24006KT 16/15 A2975 RMK A01 T01640154  RH  094%=      5-min Rain = 0
KMC1 250121Z 24006KT 16/15 A2975 RMK A01 T01640154  RH  094%=      5-min Rain = 0
KMC1 250122Z 24007KT 16/15 A2975 RMK A01 T01640154  RH  094%=      5-min Rain = 0
KMC1 250123Z 24006KT 16/15 A2975 RMK A01 T01630153  RH  094%=      5-min Rain = 0
KMC1 250124Z 23006KT 16/15 A2975 RMK A01 T01630153  RH  093%=      5-min Rain = 0
KMC1 250125Z 23005KT 16/15 A2975 RMK A01 T01630153  RH  093%=      5-min Rain = 0
KMC1 250126Z 24004KT 16/15 A2975 RMK A01 T01630153  RH  094%=      5-min Rain = 0
KMC1 250127Z 23004KT 16/15 A2975 RMK A01 T01640152  RH  093%=      5-min Rain = 0
KMC1 250128Z 23004KT 16/15 A2975 RMK A01 T01630152  RH  093%=      5-min Rain = 0
KMC1 250129Z 22004KT 16/15 A2975 RMK A01 T01630153  RH  093%=      5-min Rain = 0
KMC1 250130Z 22004KT 16/15 A2975 RMK A01 T01640153  RH  093%=      5-min Rain = 0
KMC1 250131Z 21004KT 16/15 A2975 RMK A01 T01630152  RH  093%=      5-min Rain = 0
KMC1 250132Z 21003KT 16/15 A2975 RMK A01 T01630152  RH  093%=      5-min Rain = 0
KMC1 250133Z 21003KT 16/15 A2974 RMK A01 T01630153  RH  094%=      5-min Rain = 0
KMC1 250134Z 22002KT 16/15 A2974 RMK A01 T01630154  RH  094%=      5-min Rain = 0
KMC1 250135Z 20002KT 16/15 A2974 RMK A01 T01630154  RH  094%=      5-min Rain = 0
KMC1 250136Z 18002KT 16/15 A2974 RMK A01 T01630154  RH  094%=      5-min Rain = 0
KMC1 250137Z 16002KT 16/15 A2974 RMK A01 T01640154  RH  094%=      5-min Rain = 0
KMC1 250138Z 11001KT 16/15 A2974 RMK A01 T01630154  RH  094%=      5-min Rain = 0
KMC1 250139Z 10002KT 16/15 A2974 RMK A01 T01630154  RH  094%=      5-min Rain = 0
KMC1 250140Z 10003KT 16/16 A2974 RMK A01 T01630155  RH  095%=      5-min Rain = 0
KMC1 250141Z 11003KT 16/16 A2975 RMK A01 T01630157  RH  096%=      5-min Rain = 0
KMC1 250142Z 11004KT 16/16 A2975 RMK A01 T01640159  RH  097%=      5-min Rain = 0
KMC1 250143Z 11005KT 16/16 A2975 RMK A01 T01640160  RH  097%=      5-min Rain = 0
KMC1 250144Z 11006KT 16/16 A2974 RMK A01 T01630159  RH  097%=      5-min Rain = 0
KMC1 250145Z 11006KT 16/16 A2974 RMK A01 T01630160  RH  098%=      5-min Rain = 0
KMC1 250146Z 12006KT 16/16 A2974 RMK A01 T01630160  RH  098%=      5-min Rain = 0
KMC1 250147Z 13005KT 16/16 A2974 RMK A01 T01630159  RH  097%=      5-min Rain = 0
KMC1 250148Z 13005KT 16/16 A2974 RMK A01 T01630159  RH  098%=      5-min Rain = 0
KMC1 250149Z 14004KT 16/16 A2973 RMK A01 T01630159  RH  097%=      5-min Rain = 0
KMC1 250150Z 14006KT 16/16 A2973 RMK A01 T01630158  RH  097%=      5-min Rain = 0
KMC1 250151Z 15005KT 16/16 A2972 RMK A01 T01620156  RH  096%=      5-min Rain = 0
KMC1 250152Z 14005KT 16/15 A2972 RMK A01 T01630154  RH  095%=      5-min Rain = 0
KMC1 250153Z 14004KT 16/16 A2972 RMK A01 T01630155  RH  094%=      5-min Rain = 0
KMC1 250154Z 14004KT 16/16 A2972 RMK A01 T01640155  RH  094%=      5-min Rain = 0
KMC1 250155Z 14004KT 16/15 A2972 RMK A01 T01640154  RH  093%=      5-min Rain = 0
KMC1 250156Z 14004KT 17/15 A2971 RMK A01 T01650153  RH  093%=      5-min Rain = 0
KMC1 250157Z 13005KT 17/15 A2971 RMK A01 T01650154  RH  093%=      5-min Rain = 0
KMC1 250158Z 12005KT 17/15 A2971 RMK A01 T01650153  RH  093%=      5-min Rain = 0
KMC1 250159Z 12006KT 17/15 A297 RMK A01 T01650152  RH  092%=      5-min Rain = 0
KMC1 250200Z 12007KT 17/15 A297 RMK A01 T01650152  RH  092%=      5-min Rain = 0
KMC1 250201Z 12007KT 17/15 A297 RMK A01 T01650153  RH  092%=      5-min Rain = 0
KMC1 250202Z 11007KT 17/15 A2969 RMK A01 T01650153  RH  092%=      5-min Rain = 0
KMC1 250203Z 11006KT 17/15 A2969 RMK A01 T01650153  RH  093%=      5-min Rain = 0
KMC1 250204Z 11006KT 17/15 A2968 RMK A01 T01650153  RH  092%=      5-min Rain = 0
KMC1 250205Z 11006KT 17/15 A2967 RMK A01 T01650153  RH  092%=      5-min Rain = 0
KMC1 250206Z 11007KT 17/15 A2967 RMK A01 T01650153  RH  093%=      5-min Rain = 0
KMC1 250207Z 11005KT 17/15 A2966 RMK A01 T01650153  RH  093%=      5-min Rain = 0
KMC1 250208Z 11004KT 17/15 A2966 RMK A01 T01650153  RH  093%=      5-min Rain = 0
KMC1 250209Z 11005KT 17/15 A2965 RMK A01 T01650154  RH  093%=      5-min Rain = 0
KMC1 250210Z 11004KT 17/15 A2965 RMK A01 T01650154  RH  093%=      5-min Rain = 0
KMC1 250211Z 10004KT 16/15 A2965 RMK A01 T01640154  RH  093%=      5-min Rain = 0
KMC1 250212Z 11004KT 16/15 A2965 RMK A01 T01640154  RH  094%=      5-min Rain = 0
KMC1 250213Z 11003KT 16/15 A2965 RMK A01 T01640154  RH  094%=      5-min Rain = 0
KMC1 250214Z 11004KT 16/15 A2965 RMK A01 T01640154  RH  093%=      5-min Rain = 0
KMC1 250215Z 12005KT 16/15 A2965 RMK A01 T01640153  RH  093%=      5-min Rain = 0
KMC1 250216Z 13005KT 16/15 A2965 RMK A01 T01640154  RH  093%=      5-min Rain = 0
KMC1 250217Z 12005KT 16/15 A2965 RMK A01 T01640153  RH  093%=      5-min Rain = 0
KMC1 250218Z 12005KT 16/15 A2965 RMK A01 T01640153  RH  093%=      5-min Rain = 0
KMC1 250219Z 12005KT 16/15 A2965 RMK A01 T01640153  RH  093%=      5-min Rain = 0
KMC1 250220Z 12005KT 16/15 A2965 RMK A01 T01640153  RH  093%=      5-min Rain = 0
KMC1 250221Z 12006KT 16/15 A2964 RMK A01 T01640152  RH  092%=      5-min Rain = 0
KMC1 250222Z 11006KT 17/15 A2964 RMK A01 T01650152  RH  092%=      5-min Rain = 0
KMC1 250223Z 11005KT 17/15 A2964 RMK A01 T01650151  RH  092%=      5-min Rain = 0
KMC1 250224Z 11004KT 17/15 A2963 RMK A01 T01650152  RH  092%=      5-min Rain = 0
KMC1 250225Z 10004KT 17/15 A2963 RMK A01 T01650153  RH  093%=      5-min Rain = 0
KMC1 250226Z 09004KT 17/15 A2963 RMK A01 T01650154  RH  093%=      5-min Rain = 0
KMC1 250227Z 08004KT 17/15 A2963 RMK A01 T01650154  RH  093%=      5-min Rain = 0
KMC1 250228Z 08003KT 16/15 A2963 RMK A01 T01640154  RH  094%=      5-min Rain = 0
KMC1 250229Z 09002KT 16/16 A2963 RMK A01 T01640155  RH  094%=      5-min Rain = 0
KMC1 250230Z 11004KT 16/16 A2963 RMK A01 T01640156  RH  095%=      5-min Rain = 0
KMC1 250231Z 11003KT 16/16 A2963 RMK A01 T01640156  RH  095%=      5-min Rain = 0
KMC1 250232Z 11003KT 16/16 A2963 RMK A01 T01640156  RH  095%=      5-min Rain = 0
KMC1 250233Z 11003KT 16/16 A2963 RMK A01 T01640156  RH  095%=      5-min Rain = 0
KMC1 250234Z 13002KT 16/16 A2964 RMK A01 T01640157  RH  095%=      5-min Rain = 0
KMC1 250235Z 12000KT 16/16 A2964 RMK A01 T01640156  RH  095%=      5-min Rain = 0
KMC1 250236Z 29001KT 16/16 A2965 RMK A01 T01640156  RH  095%=      5-min Rain = 0
KMC1 250237Z 29004KT 16/16 A2966 RMK A01 T01640156  RH  095%=      5-min Rain = 0
KMC1 250238Z 29005KT 17/16 A2966 RMK A01 T01650159  RH  096%=      5-min Rain = 0
KMC1 250239Z 30003KT 17/16 A2966 RMK A01 T01650161  RH  097%=      5-min Rain = 0
KMC1 250240Z 31004KT 17/16 A2966 RMK A01 T01660161  RH  097%=      5-min Rain = 0
KMC1 250241Z 33004KT 17/16 A2965 RMK A01 T01660160  RH  097%=      5-min Rain = 0
KMC1 250242Z 33003KT 17/16 A2965 RMK A01 T01650160  RH  097%=      5-min Rain = 0
KMC1 250243Z 32005KT 17/16 A2965 RMK A01 T01650159  RH  096%=      5-min Rain = 0
KMC1 250244Z 33005KT 17/16 A2965 RMK A01 T01650159  RH  096%=      5-min Rain = 0
KMC1 250245Z 00004KT 17/16 A2965 RMK A01 T01650158  RH  096%=      5-min Rain = 0
KMC1 250246Z 03004KT 17/16 A2965 RMK A01 T01650157  RH  095%=      5-min Rain = 0
KMC1 250247Z 32002KT 17/16 A2966 RMK A01 T01650157  RH  095%=      5-min Rain = 0
KMC1 250248Z 30003KT 17/16 A2966 RMK A01 T01650158  RH  095%=      5-min Rain = 0
KMC1 250249Z 33000KT 17/16 A2966 RMK A01 T01660159  RH  096%=      5-min Rain = 0
KMC1 250250Z 08001KT 17/16 A2967 RMK A01 T01650158  RH  095%=      5-min Rain = 0
KMC1 250251Z 09001KT 17/16 A2967 RMK A01 T01650158  RH  095%=      5-min Rain = 0
KMC1 250252Z 08001KT 17/16 A2967 RMK A01 T01650158  RH  095%=      5-min Rain = 0
KMC1 250253Z 03002KT 17/16 A2967 RMK A01 T01650159  RH  096%=      5-min Rain = 0
KMC1 250254Z 03003KT 17/16 A2967 RMK A01 T01650159  RH  096%=      5-min Rain = 0
KMC1 250255Z 03004KT 17/16 A2967 RMK A01 T01650159  RH  096%=      5-min Rain = 0
KMC1 250256Z 04004KT 17/16 A2968 RMK A01 T01660160  RH  096%=      5-min Rain = 0
KMC1 250257Z 06003KT 17/16 A2968 RMK A01 T01660161  RH  097%=      5-min Rain = 0
KMC1 250258Z 07004KT 17/16 A2968 RMK A01 T01660162  RH  097%=      5-min Rain = 0
KMC1 250259Z 07004KT 17/16 A2969 RMK A01 T01660162  RH  098%=      5-min Rain = 0
KMC1 250300Z 09003KT 17/16 A2969 RMK A01 T01650162  RH  098%=      5-min Rain = 0
KMC1 250301Z 11003KT 17/16 A297 RMK A01 T01650162  RH  098%=      5-min Rain = 0
KMC1 250302Z 12002KT 17/16 A2971 RMK A01 T01650162  RH  098%=      5-min Rain = 0
KMC1 250303Z 11003KT 16/16 A2971 RMK A01 T01640162  RH  099%=      5-min Rain = 0
KMC1 250304Z 10003KT 16/16 A2971 RMK A01 T01640163  RH  099%=      5-min Rain = 0
KMC1 250305Z 08003KT 16/16 A2971 RMK A01 T01640163  RH  099%=      5-min Rain = 0
KMC1 250306Z 08004KT 16/16 A2971 RMK A01 T01640163  RH  099%=      5-min Rain = 0
KMC1 250307Z 08004KT 16/16 A2971 RMK A01 T01640163  RH  099%=      5-min Rain = 0
KMC1 250308Z 07004KT 16/16 A2972 RMK A01 T01640163  RH  099%=      5-min Rain = 0
KMC1 250309Z 07004KT 16/16 A2972 RMK A01 T01640163  RH  099%=      5-min Rain = 0
KMC1 250310Z 07003KT 17/16 A2972 RMK A01 T01650164  RH  099%=      5-min Rain = 0
KMC1 250311Z 07003KT 16/16 A2972 RMK A01 T01640163  RH  099%=      5-min Rain = 0
KMC1 250312Z 08002KT 17/16 A2973 RMK A01 T01650164  RH  100%=      5-min Rain = 0
KMC1 250313Z 08002KT 16/16 A2973 RMK A01 T01640164  RH  100%=      5-min Rain = 0
KMC1 250314Z 07003KT 16/16 A2973 RMK A01 T01640164  RH  100%=      5-min Rain = 0
KMC1 250315Z 06003KT 16/16 A2973 RMK A01 T01640164  RH  100%=      5-min Rain = 0
KMC1 250316Z 06004KT 16/16 A2973 RMK A01 T01640163  RH  099%=      5-min Rain = 0
KMC1 250317Z 06003KT 16/16 A2973 RMK A01 T01640163  RH  099%=      5-min Rain = 0
KMC1 250318Z 07004KT 16/16 A2973 RMK A01 T01640163  RH  099%=      5-min Rain = 0
KMC1 250319Z 09003KT 16/16 A2973 RMK A01 T01640163  RH  099%=      5-min Rain = 0
KMC1 250320Z 10004KT 16/16 A2974 RMK A01 T01640164  RH  099%=      5-min Rain = 0
KMC1 250321Z 10004KT 16/16 A2974 RMK A01 T01640163  RH  099%=      5-min Rain = 0
KMC1 250322Z 08004KT 17/16 A2974 RMK A01 T01650164  RH  099%=      5-min Rain = 0
KMC1 250323Z 07003KT 17/16 A2974 RMK A01 T01650164  RH  099%=      5-min Rain = 0
KMC1 250324Z 06003KT 17/16 A2974 RMK A01 T01650164  RH  099%=      5-min Rain = 0
KMC1 250325Z 06004KT 17/16 A2974 RMK A01 T01650164  RH  099%=      5-min Rain = 0
KMC1 250326Z 06004KT 17/16 A2974 RMK A01 T01650164  RH  099%=      5-min Rain = 0
KMC1 250327Z 08004KT 17/16 A2974 RMK A01 T01650164  RH  099%=      5-min Rain = 0
KMC1 250328Z 09004KT 17/16 A2975 RMK A01 T01650164  RH  099%=      5-min Rain = 0
KMC1 250329Z 10005KT 17/17 A2975 RMK A01 T01650165  RH  100%=      5-min Rain = 0
KMC1 250330Z 11005KT 17/16 A2976 RMK A01 T01650164  RH  099%=      5-min Rain = 0
KMC1 250331Z 11005KT 17/16 A2976 RMK A01 T01650164  RH  099%=      5-min Rain = 0
KMC1 250332Z 09004KT 17/16 A2976 RMK A01 T01650164  RH  099%=      5-min Rain = 0
KMC1 250333Z 07004KT 17/16 A2976 RMK A01 T01650164  RH  099%=      5-min Rain = 0
KMC1 250334Z 05005KT 17/16 A2976 RMK A01 T01650164  RH  099%=      5-min Rain = 0
KMC1 250335Z 05004KT 17/16 A2976 RMK A01 T01650164  RH  099%=      5-min Rain = 0
KMC1 250336Z 04004KT 17/16 A2976 RMK A01 T01650164  RH  099%=      5-min Rain = 0
KMC1 250337Z 04004KT 17/16 A2976 RMK A01 T01650163  RH  099%=      5-min Rain = 0
KMC1 250338Z 03004KT 17/16 A2977 RMK A01 T01650164  RH  099%=      5-min Rain = 0
KMC1 250339Z 04004KT 17/16 A2977 RMK A01 T01650163  RH  099%=      5-min Rain = 0
KMC1 250340Z 04004KT 17/16 A2977 RMK A01 T01650163  RH  098%=      5-min Rain = 0
KMC1 250341Z 05004KT 17/16 A2977 RMK A01 T01650163  RH  098%=      5-min Rain = 0
KMC1 250342Z 05004KT 17/16 A2977 RMK A01 T01650162  RH  098%=      5-min Rain = 0
KMC1 250343Z 05005KT 17/16 A2977 RMK A01 T01650162  RH  098%=      5-min Rain = 0
KMC1 250344Z 04006KT 17/16 A2977 RMK A01 T01650163  RH  098%=      5-min Rain = 0
KMC1 250345Z 04006KT 17/16 A2978 RMK A01 T01650163  RH  098%=      5-min Rain = 0
KMC1 250346Z 04005KT 17/16 A2978 RMK A01 T01650163  RH  098%=      5-min Rain = 0
KMC1 250347Z 05006KT 17/16 A2978 RMK A01 T01650163  RH  099%=      5-min Rain = 0
KMC1 250348Z 05006KT 17/16 A2978 RMK A01 T01650163  RH  098%=      5-min Rain = 0
KMC1 250349Z 05006KT 17/16 A2978 RMK A01 T01650163  RH  098%=      5-min Rain = 0
KMC1 250350Z 05005KT 17/16 A2978 RMK A01 T01650163  RH  099%=      5-min Rain = 0
KMC1 250351Z 04006KT 17/16 A2978 RMK A01 T01650163  RH  099%=      5-min Rain = 0
KMC1 250352Z 03008KT 17/16 A2978 RMK A01 T01650164  RH  099%=      5-min Rain = 0
KMC1 250353Z 04008KT 17/16 A2978 RMK A01 T01650164  RH  099%=      5-min Rain = 0
KMC1 250354Z 04008KT 17/16 A2978 RMK A01 T01650163  RH  099%=      5-min Rain = 0
KMC1 250355Z 05008KT 17/16 A2978 RMK A01 T01650164  RH  099%=      5-min Rain = 0
KMC1 250356Z 04007KT 17/16 A2978 RMK A01 T01660164  RH  099%=      5-min Rain = 0
KMC1 250357Z 05006KT 17/16 A2978 RMK A01 T01660164  RH  099%=      5-min Rain = 0
KMC1 250358Z 05006KT 17/16 A2978 RMK A01 T01660163  RH  099%=      5-min Rain = 0
KMC1 250359Z 05006KT 17/16 A2978 RMK A01 T01660164  RH  099%=      5-min Rain = 0
KMC1 250400Z 06007KT 17/16 A2978 RMK A01 T01660164  RH  099%=      5-min Rain = 0
KMC1 250401Z 04006KT 17/16 A2978 RMK A01 T01660164  RH  099%=      5-min Rain = 0
KMC1 250402Z 05006KT 17/16 A2978 RMK A01 T01660164  RH  099%=      5-min Rain = 0
KMC1 250403Z 05007KT 17/16 A2978 RMK A01 T01660164  RH  099%=      5-min Rain = 0
KMC1 250404Z 04006G11KT 17/16 A2978 RMK A01 T01660164  RH  099%=      5-min Rain = 0
KMC1 250405Z 04006KT 17/16 A2978 RMK A01 T01660164  RH  099%=      5-min Rain = 0
KMC1 250406Z 04008KT 17/16 A2978 RMK A01 T01660164  RH  099%=      5-min Rain = 0
KMC1 250407Z 04009KT 17/16 A2978 RMK A01 T01660164  RH  099%=      5-min Rain = 0
KMC1 250408Z 04008KT 17/16 A2978 RMK A01 T01660164  RH  099%=      5-min Rain = 0
KMC1 250409Z 04008KT 17/16 A2978 RMK A01 T01660164  RH  099%=      5-min Rain = 0
KMC1 250410Z 04006KT 17/16 A2978 RMK A01 T01660164  RH  099%=      5-min Rain = 0
KMC1 250411Z 04009KT 17/16 A2979 RMK A01 T01660164  RH  099%=      5-min Rain = 0
KMC1 250412Z 04008KT 17/16 A2979 RMK A01 T01650164  RH  099%=      5-min Rain = 0
KMC1 250413Z 04007KT 17/16 A2979 RMK A01 T01660164  RH  099%=      5-min Rain = 0
KMC1 250414Z 05007KT 17/16 A2979 RMK A01 T01660164  RH  099%=      5-min Rain = 0
KMC1 250415Z 04009KT 17/16 A2979 RMK A01 T01660164  RH  099%=      5-min Rain = 0
KMC1 250416Z 04009KT 17/16 A2979 RMK A01 T01650164  RH  099%=      5-min Rain = 0
KMC1 250417Z 05006G11KT 17/16 A2979 RMK A01 T01650164  RH  099%=      5-min Rain = 0
KMC1 250418Z 05008G13KT 17/16 A2979 RMK A01 T01650164  RH  099%=      5-min Rain = 0
KMC1 250419Z 04006KT 17/16 A2979 RMK A01 T01650164  RH  099%=      5-min Rain = 0
KMC1 250420Z 05005KT 17/16 A2979 RMK A01 T01650164  RH  099%=      5-min Rain = 0
KMC1 250421Z 05005KT 17/16 A2979 RMK A01 T01650164  RH  099%=      5-min Rain = 0
KMC1 250422Z 06007KT 17/16 A2979 RMK A01 T01650164  RH  099%=      5-min Rain = 0
KMC1 250423Z 06006KT 17/16 A2979 RMK A01 T01650164  RH  099%=      5-min Rain = 0
KMC1 250424Z 07007KT 17/16 A2978 RMK A01 T01650164  RH  099%=      5-min Rain = 0
KMC1 250425Z 06007KT 17/16 A2978 RMK A01 T01650164  RH  099%=      5-min Rain = 0
KMC1 250426Z 06006KT 17/16 A2978 RMK A01 T01650164  RH  099%=      5-min Rain = 0
KMC1 250427Z 06005KT 17/16 A2979 RMK A01 T01650164  RH  099%=      5-min Rain = 0
KMC1 250428Z 06007KT 17/16 A2979 RMK A01 T01650164  RH  099%=      5-min Rain = 0
KMC1 250429Z 05005KT 17/16 A2979 RMK A01 T01650164  RH  099%=      5-min Rain = 0
KMC1 250430Z 06007KT 16/16 A2979 RMK A01 T01640163  RH  099%=      5-min Rain = 0
KMC1 250431Z 06010KT 17/16 A2979 RMK A01 T01650164  RH  099%=      5-min Rain = 0
KMC1 250432Z 04008KT 16/16 A2979 RMK A01 T01640163  RH  099%=      5-min Rain = 0
KMC1 250433Z 05007KT 16/16 A298 RMK A01 T01640163  RH  099%=      5-min Rain = 0
KMC1 250434Z 05008KT 16/16 A298 RMK A01 T01640162  RH  099%=      5-min Rain = 0
KMC1 250435Z 04009KT 17/16 A298 RMK A01 T01650163  RH  099%=      5-min Rain = 0
KMC1 250436Z 05008KT 16/16 A298 RMK A01 T01640162  RH  099%=      5-min Rain = 0
KMC1 250437Z 05008KT 16/16 A298 RMK A01 T01640162  RH  099%=      5-min Rain = 0
KMC1 250438Z 05008KT 16/16 A298 RMK A01 T01640162  RH  099%=      5-min Rain = 0
KMC1 250439Z 06007G13KT 16/16 A298 RMK A01 T01640162  RH  098%=      5-min Rain = 0
KMC1 250440Z 05007KT 16/16 A298 RMK A01 T01640162  RH  098%=      5-min Rain = 0
KMC1 250441Z 06006G11KT 16/16 A2979 RMK A01 T01640162  RH  098%=      5-min Rain = 0
KMC1 250442Z 06006KT 16/16 A2979 RMK A01 T01640162  RH  098%=      5-min Rain = 0
KMC1 250443Z 05006KT 16/16 A2979 RMK A01 T01640162  RH  098%=      5-min Rain = 0
KMC1 250444Z 06006KT 16/16 A2979 RMK A01 T01640162  RH  098%=      5-min Rain = 0
KMC1 250445Z 04006KT 16/16 A2979 RMK A01 T01640162  RH  099%=      5-min Rain = 0
KMC1 250446Z 05008KT 16/16 A298 RMK A01 T01640162  RH  099%=      5-min Rain = 0
KMC1 250447Z 04009KT 16/16 A298 RMK A01 T01640162  RH  099%=      5-min Rain = 0
KMC1 250448Z 06007G12KT 16/16 A298 RMK A01 T01640162  RH  099%=      5-min Rain = 0
KMC1 250449Z 06006KT 16/16 A298 RMK A01 T01640162  RH  099%=      5-min Rain = 0
KMC1 250450Z 06009KT 16/16 A298 RMK A01 T01640162  RH  099%=      5-min Rain = 0
KMC1 250451Z 06008KT 16/16 A298 RMK A01 T01640162  RH  099%=      5-min Rain = 0
KMC1 250452Z 06008KT 16/16 A298 RMK A01 T01640162  RH  099%=      5-min Rain = 0
KMC1 250453Z 04008KT 16/16 A2981 RMK A01 T01640162  RH  099%=      5-min Rain = 0
KMC1 250454Z 05009KT 16/16 A2981 RMK A01 T01630161  RH  099%=      5-min Rain = 0
KMC1 250455Z 04009KT 16/16 A2981 RMK A01 T01640162  RH  099%=      5-min Rain = 0
KMC1 250456Z 05007G12KT 16/16 A298 RMK A01 T01640162  RH  099%=      5-min Rain = 0
KMC1 250457Z 07005G10KT 16/16 A298 RMK A01 T01630162  RH  099%=      5-min Rain = 0
KMC1 250458Z 05007KT 16/16 A298 RMK A01 T01640162  RH  099%=      5-min Rain = 0
KMC1 250459Z 05006KT 16/16 A298 RMK A01 T01630162  RH  099%=      5-min Rain = 0

Page generated in 0.1229 seconds.